Observation data for Happy on 03/11/2018      Previous  Date  Next       Current Mesonet Observations  Soil Data  Daily Summary Page  Observations in Plain Language
KHA2 110600Z 03023KT 11/M05 A3006 RMK A01 T01081045  RH  034%=      5-min Rain = 0
KHA2 110601Z 03025KT 11/M05 A3006 RMK A01 T01071045  RH  034%=      5-min Rain = 0
KHA2 110602Z 03024KT 11/M04 A3006 RMK A01 T01071044  RH  034%=      5-min Rain = 0
KHA2 110603Z 03025G31KT 11/M04 A3006 RMK A01 T01071044  RH  034%=      5-min Rain = 0
KHA2 110604Z 03026KT 11/M04 A3006 RMK A01 T01071044  RH  034%=      5-min Rain = 0
KHA2 110605Z 03028KT 11/M04 A3006 RMK A01 T01071044  RH  034%=      5-min Rain = 0
KHA2 110606Z 03025KT 11/M05 A3006 RMK A01 T01071045  RH  034%=      5-min Rain = 0
KHA2 110607Z 03023KT 11/M04 A3006 RMK A01 T01071044  RH  034%=      5-min Rain = 0
KHA2 110608Z 03027KT 11/M04 A3006 RMK A01 T01061044  RH  035%=      5-min Rain = 0
KHA2 110609Z 03027G32KT 11/M04 A3006 RMK A01 T01071043  RH  035%=      5-min Rain = 0
KHA2 110610Z 03026G31KT 11/M04 A3006 RMK A01 T01061043  RH  035%=      5-min Rain = 0
KHA2 110611Z 03026KT 11/M04 A3006 RMK A01 T01061043  RH  035%=      5-min Rain = 0
KHA2 110612Z 03027G33KT 11/M04 A3006 RMK A01 T01061043  RH  035%=      5-min Rain = 0
KHA2 110613Z 03028KT 11/M04 A3006 RMK A01 T01061043  RH  035%=      5-min Rain = 0
KHA2 110614Z 03028KT 11/M04 A3006 RMK A01 T01061042  RH  035%=      5-min Rain = 0
KHA2 110615Z 03029KT 11/M04 A3006 RMK A01 T01051042  RH  035%=      5-min Rain = 0
KHA2 110616Z 03031KT 11/M04 A3006 RMK A01 T01061041  RH  035%=      5-min Rain = 0
KHA2 110617Z 03023KT 11/M04 A3007 RMK A01 T01051041  RH  035%=      5-min Rain = 0
KHA2 110618Z 03021KT 10/M04 A3007 RMK A01 T01041042  RH  036%=      5-min Rain = 0
KHA2 110619Z 03024KT 10/M04 A3007 RMK A01 T01041041  RH  036%=      5-min Rain = 0
KHA2 110620Z 03024KT 10/M04 A3007 RMK A01 T01031042  RH  036%=      5-min Rain = 0
KHA2 110621Z 03025KT 10/M04 A3007 RMK A01 T01041041  RH  036%=      5-min Rain = 0
KHA2 110622Z 03025G31KT 10/M04 A3007 RMK A01 T01041041  RH  036%=      5-min Rain = 0
KHA2 110623Z 03025G31KT 10/M04 A3007 RMK A01 T01041041  RH  036%=      5-min Rain = 0
KHA2 110624Z 03027KT 10/M04 A3007 RMK A01 T01031041  RH  036%=      5-min Rain = 0
KHA2 110625Z 03026KT 10/M04 A3007 RMK A01 T01031041  RH  036%=      5-min Rain = 0
KHA2 110626Z 03026KT 10/M04 A3007 RMK A01 T01031041  RH  036%=      5-min Rain = 0
KHA2 110627Z 03022KT 10/M04 A3008 RMK A01 T01031041  RH  036%=      5-min Rain = 0
KHA2 110628Z 03021KT 10/M04 A3008 RMK A01 T01021041  RH  036%=      5-min Rain = 0
KHA2 110629Z 03025G32KT 10/M04 A3007 RMK A01 T01021041  RH  036%=      5-min Rain = 0
KHA2 110630Z 03025KT 10/M04 A3007 RMK A01 T01021040  RH  037%=      5-min Rain = 0
KHA2 110631Z 03025KT 10/M04 A3007 RMK A01 T01021040  RH  037%=      5-min Rain = 0
KHA2 110632Z 03024G29KT 10/M04 A3007 RMK A01 T01021040  RH  037%=      5-min Rain = 0
KHA2 110633Z 03021KT 10/M04 A3007 RMK A01 T01011040  RH  037%=      5-min Rain = 0
KHA2 110634Z 03021KT 10/M04 A3008 RMK A01 T01011040  RH  037%=      5-min Rain = 0
KHA2 110635Z 03023G28KT 10/M04 A3008 RMK A01 T01011040  RH  037%=      5-min Rain = 0
KHA2 110636Z 03020G27KT 10/M04 A3008 RMK A01 T01001040  RH  037%=      5-min Rain = 0
KHA2 110637Z 03024KT 10/M04 A3008 RMK A01 T01001040  RH  037%=      5-min Rain = 0
KHA2 110638Z 03023KT 10/M04 A3008 RMK A01 T01001039  RH  037%=      5-min Rain = 0
KHA2 110639Z 03029G35KT 10/M04 A3008 RMK A01 T01001040  RH  037%=      5-min Rain = 0
KHA2 110640Z 03028KT 10/M04 A3007 RMK A01 T01011040  RH  037%=      5-min Rain = 0
KHA2 110641Z 03028KT 10/M04 A3007 RMK A01 T01011040  RH  037%=      5-min Rain = 0
KHA2 110642Z 03028G33KT 10/M04 A3007 RMK A01 T01011039  RH  037%=      5-min Rain = 0
KHA2 110643Z 04026KT 10/M04 A3008 RMK A01 T01011039  RH  037%=      5-min Rain = 0
KHA2 110644Z 03028KT 10/M04 A3008 RMK A01 T01001039  RH  037%=      5-min Rain = 0
KHA2 110645Z 03027KT 10/M04 A3008 RMK A01 T01011039  RH  037%=      5-min Rain = 0
KHA2 110646Z 03028KT 10/M04 A3008 RMK A01 T01001040  RH  037%=      5-min Rain = 0
KHA2 110647Z 03024KT 10/M04 A3008 RMK A01 T01001039  RH  037%=      5-min Rain = 0
KHA2 110648Z 03022G27KT 10/M04 A3008 RMK A01 T01001040  RH  037%=      5-min Rain = 0
KHA2 110649Z 03025G30KT 10/M04 A3008 RMK A01 T00991039  RH  037%=      5-min Rain = 0
KHA2 110650Z 03024KT 10/M04 A3008 RMK A01 T00991039  RH  038%=      5-min Rain = 0
KHA2 110651Z 03024G30KT 10/M04 A3009 RMK A01 T00991039  RH  038%=      5-min Rain = 0
KHA2 110652Z 03025KT 10/M04 A3008 RMK A01 T00991039  RH  038%=      5-min Rain = 0
KHA2 110653Z 03020G25KT 10/M04 A3009 RMK A01 T00981039  RH  038%=      5-min Rain = 0
KHA2 110654Z 03019KT 10/M04 A3009 RMK A01 T00981039  RH  038%=      5-min Rain = 0
KHA2 110655Z 03020G27KT 10/M04 A3009 RMK A01 T00971039  RH  038%=      5-min Rain = 0
KHA2 110656Z 03021KT 10/M04 A3009 RMK A01 T00971039  RH  038%=      5-min Rain = 0
KHA2 110657Z 03021KT 10/M04 A3009 RMK A01 T00971039  RH  038%=      5-min Rain = 0
KHA2 110658Z 03024G29KT 10/M04 A3009 RMK A01 T00971039  RH  038%=      5-min Rain = 0
KHA2 110659Z 03020KT 10/M04 A3009 RMK A01 T00971040  RH  038%=      5-min Rain = 0
KHA2 110700Z 03021KT 10/M04 A3009 RMK A01 T00971040  RH  038%=      5-min Rain = 0
KHA2 110701Z 03021G26KT 10/M04 A3009 RMK A01 T00971039  RH  038%=      5-min Rain = 0
KHA2 110702Z 02022G28KT 10/M04 A3009 RMK A01 T00961039  RH  038%=      5-min Rain = 0
KHA2 110703Z 03020KT 10/M04 A301 RMK A01 T00961039  RH  038%=      5-min Rain = 0
KHA2 110704Z 03022KT 10/M04 A3009 RMK A01 T00961040  RH  038%=      5-min Rain = 0
KHA2 110705Z 03022KT 10/M04 A301 RMK A01 T00961040  RH  038%=      5-min Rain = 0
KHA2 110706Z 03022KT 10/M04 A301 RMK A01 T00961040  RH  038%=      5-min Rain = 0
KHA2 110707Z 03021KT 10/M04 A301 RMK A01 T00961040  RH  038%=      5-min Rain = 0
KHA2 110708Z 03023KT 10/M04 A301 RMK A01 T00961040  RH  038%=      5-min Rain = 0
KHA2 110709Z 03024KT 10/M04 A301 RMK A01 T00961039  RH  038%=      5-min Rain = 0
KHA2 110710Z 03023KT 10/M04 A301 RMK A01 T00961040  RH  038%=      5-min Rain = 0
KHA2 110711Z 03021KT 10/M04 A301 RMK A01 T00961040  RH  038%=      5-min Rain = 0
KHA2 110712Z 03021KT 10/M04 A301 RMK A01 T00961040  RH  038%=      5-min Rain = 0
KHA2 110713Z 03022G27KT 10/M04 A301 RMK A01 T00961040  RH  038%=      5-min Rain = 0
KHA2 110714Z 03021KT 10/M04 A301 RMK A01 T00961040  RH  038%=      5-min Rain = 0
KHA2 110715Z 03020KT 10/M04 A301 RMK A01 T00951040  RH  038%=      5-min Rain = 0
KHA2 110716Z 03021KT 10/M04 A301 RMK A01 T00951040  RH  038%=      5-min Rain = 0
KHA2 110717Z 03021KT 10/M04 A301 RMK A01 T00951039  RH  039%=      5-min Rain = 0
KHA2 110718Z 03020KT 10/M04 A301 RMK A01 T00951040  RH  038%=      5-min Rain = 0
KHA2 110719Z 03018KT 10/M04 A301 RMK A01 T00951040  RH  038%=      5-min Rain = 0
KHA2 110720Z 03019KT 09/M04 A301 RMK A01 T00941040  RH  038%=      5-min Rain = 0
KHA2 110721Z 03017KT 09/M04 A301 RMK A01 T00941041  RH  038%=      5-min Rain = 0
KHA2 110722Z 02019KT 09/M04 A301 RMK A01 T00941040  RH  039%=      5-min Rain = 0
KHA2 110723Z 03022KT 09/M04 A301 RMK A01 T00931041  RH  039%=      5-min Rain = 0
KHA2 110724Z 03022KT 09/M04 A301 RMK A01 T00941040  RH  039%=      5-min Rain = 0
KHA2 110725Z 03022KT 09/M04 A301 RMK A01 T00941040  RH  039%=      5-min Rain = 0
KHA2 110726Z 03020KT 09/M04 A301 RMK A01 T00941040  RH  039%=      5-min Rain = 0
KHA2 110727Z 03021KT 09/M04 A301 RMK A01 T00941040  RH  039%=      5-min Rain = 0
KHA2 110728Z 03019KT 09/M04 A301 RMK A01 T00931041  RH  039%=      5-min Rain = 0
KHA2 110729Z 03020KT 09/M04 A301 RMK A01 T00931041  RH  039%=      5-min Rain = 0
KHA2 110730Z 03018KT 09/M04 A301 RMK A01 T00931040  RH  039%=      5-min Rain = 0
KHA2 110731Z 03018KT 09/M04 A301 RMK A01 T00931040  RH  039%=      5-min Rain = 0
KHA2 110732Z 03019KT 09/M04 A301 RMK A01 T00921040  RH  039%=      5-min Rain = 0
KHA2 110733Z 03017KT 09/M04 A301 RMK A01 T00921040  RH  039%=      5-min Rain = 0
KHA2 110734Z 03020KT 09/M04 A301 RMK A01 T00921040  RH  039%=      5-min Rain = 0
KHA2 110735Z 03018G23KT 09/M04 A3011 RMK A01 T00921040  RH  039%=      5-min Rain = 0
KHA2 110736Z 03020KT 09/M04 A3011 RMK A01 T00911040  RH  039%=      5-min Rain = 0
KHA2 110737Z 03017KT 09/M04 A3011 RMK A01 T00911039  RH  039%=      5-min Rain = 0
KHA2 110738Z 03019KT 09/M04 A301 RMK A01 T00911040  RH  039%=      5-min Rain = 0
KHA2 110739Z 03019KT 09/M04 A301 RMK A01 T00911040  RH  039%=      5-min Rain = 0
KHA2 110740Z 02017KT 09/M04 A3011 RMK A01 T00911040  RH  039%=      5-min Rain = 0
KHA2 110741Z 03019KT 09/M04 A3011 RMK A01 T00911040  RH  039%=      5-min Rain = 0
KHA2 110742Z 03016KT 09/M04 A3011 RMK A01 T00911040  RH  039%=      5-min Rain = 0
KHA2 110743Z 03017KT 09/M04 A3011 RMK A01 T00911040  RH  040%=      5-min Rain = 0
KHA2 110744Z 03017KT 09/M04 A3011 RMK A01 T00901040  RH  040%=      5-min Rain = 0
KHA2 110745Z 03015KT 09/M04 A3011 RMK A01 T00901040  RH  040%=      5-min Rain = 0
KHA2 110746Z 03016KT 09/M04 A3011 RMK A01 T00891039  RH  040%=      5-min Rain = 0
KHA2 110747Z 02016KT 09/M04 A3011 RMK A01 T00891040  RH  040%=      5-min Rain = 0
KHA2 110748Z 02018KT 09/M04 A301 RMK A01 T00891040  RH  040%=      5-min Rain = 0
KHA2 110749Z 03018KT 09/M04 A301 RMK A01 T00901040  RH  040%=      5-min Rain = 0
KHA2 110750Z 03018KT 09/M04 A3011 RMK A01 T00901040  RH  040%=      5-min Rain = 0
KHA2 110751Z 03017KT 09/M04 A3011 RMK A01 T00901039  RH  040%=      5-min Rain = 0
KHA2 110752Z 03018KT 09/M04 A3011 RMK A01 T00891040  RH  040%=      5-min Rain = 0
KHA2 110753Z 02017KT 09/M04 A3011 RMK A01 T00891039  RH  040%=      5-min Rain = 0
KHA2 110754Z 03018KT 09/M04 A3011 RMK A01 T00891039  RH  040%=      5-min Rain = 0
KHA2 110755Z 03017KT 09/M04 A3011 RMK A01 T00891039  RH  040%=      5-min Rain = 0
KHA2 110756Z 02019KT 09/M04 A3011 RMK A01 T00891040  RH  040%=      5-min Rain = 0
KHA2 110757Z 03018KT 09/M04 A3011 RMK A01 T00891040  RH  040%=      5-min Rain = 0
KHA2 110758Z 02017KT 09/M04 A3011 RMK A01 T00891040  RH  040%=      5-min Rain = 0
KHA2 110759Z 03018KT 09/M04 A3011 RMK A01 T00891040  RH  040%=      5-min Rain = 0
KHA2 110800Z 03017KT 09/M04 A3011 RMK A01 T00891040  RH  040%=      5-min Rain = 0
KHA2 110801Z 02017KT 09/M04 A3011 RMK A01 T00891040  RH  040%=      5-min Rain = 0
KHA2 110802Z 02017KT 09/M04 A3011 RMK A01 T00881040  RH  040%=      5-min Rain = 0
KHA2 110803Z 02017KT 09/M04 A3011 RMK A01 T00881040  RH  040%=      5-min Rain = 0
KHA2 110804Z 02018KT 09/M04 A3011 RMK A01 T00881040  RH  040%=      5-min Rain = 0
KHA2 110805Z 02019KT 09/M04 A3011 RMK A01 T00881040  RH  040%=      5-min Rain = 0
KHA2 110806Z 02018KT 09/M04 A3011 RMK A01 T00881040  RH  040%=      5-min Rain = 0
KHA2 110807Z 02021KT 09/M04 A3011 RMK A01 T00881040  RH  040%=      5-min Rain = 0
KHA2 110808Z 02017KT 09/M04 A3011 RMK A01 T00881041  RH  040%=      5-min Rain = 0
KHA2 110809Z 02016G21KT 09/M04 A3011 RMK A01 T00871040  RH  040%=      5-min Rain = 0
KHA2 110810Z 02019KT 09/M04 A3011 RMK A01 T00871040  RH  040%=      5-min Rain = 0
KHA2 110811Z 02019KT 09/M04 A3011 RMK A01 T00871041  RH  040%=      5-min Rain = 0
KHA2 110812Z 02017KT 09/M04 A3011 RMK A01 T00881040  RH  040%=      5-min Rain = 0
KHA2 110813Z 02017KT 09/M04 A3011 RMK A01 T00871040  RH  040%=      5-min Rain = 0
KHA2 110814Z 02018KT 09/M04 A3011 RMK A01 T00861041  RH  040%=      5-min Rain = 0
KHA2 110815Z 02017KT 09/M04 A3011 RMK A01 T00861040  RH  041%=      5-min Rain = 0
KHA2 110816Z 02018KT 09/M04 A3011 RMK A01 T00861041  RH  040%=      5-min Rain = 0
KHA2 110817Z 02018KT 09/M04 A3011 RMK A01 T00861041  RH  040%=      5-min Rain = 0
KHA2 110818Z 02018KT 09/M04 A3011 RMK A01 T00861041  RH  041%=      5-min Rain = 0
KHA2 110819Z 02017KT 09/M04 A3011 RMK A01 T00861041  RH  041%=      5-min Rain = 0
KHA2 110820Z 02017KT 09/M04 A3011 RMK A01 T00851041  RH  041%=      5-min Rain = 0
KHA2 110821Z 02016KT 09/M04 A3011 RMK A01 T00861040  RH  041%=      5-min Rain = 0
KHA2 110822Z 02015G20KT 09/M04 A3011 RMK A01 T00851040  RH  041%=      5-min Rain = 0
KHA2 110823Z 02017KT 08/M04 A3011 RMK A01 T00841040  RH  041%=      5-min Rain = 0
KHA2 110824Z 02016KT 08/M04 A3011 RMK A01 T00841040  RH  041%=      5-min Rain = 0
KHA2 110825Z 02020KT 09/M04 A3011 RMK A01 T00851041  RH  041%=      5-min Rain = 0
KHA2 110826Z 02019KT 09/M04 A3011 RMK A01 T00851041  RH  041%=      5-min Rain = 0
KHA2 110827Z 02018KT 09/M04 A3011 RMK A01 T00851041  RH  041%=      5-min Rain = 0
KHA2 110828Z 02016KT 09/M04 A3011 RMK A01 T00851040  RH  041%=      5-min Rain = 0
KHA2 110829Z 02017KT 08/M04 A3011 RMK A01 T00841041  RH  041%=      5-min Rain = 0
KHA2 110830Z 02018KT 08/M04 A3012 RMK A01 T00841041  RH  041%=      5-min Rain = 0
KHA2 110831Z 02015KT 08/M04 A3012 RMK A01 T00841040  RH  041%=      5-min Rain = 0
KHA2 110832Z 02016KT 08/M04 A3012 RMK A01 T00841041  RH  041%=      5-min Rain = 0
KHA2 110833Z 02016KT 08/M04 A3012 RMK A01 T00841041  RH  041%=      5-min Rain = 0
KHA2 110834Z 02015KT 08/M04 A3012 RMK A01 T00831041  RH  041%=      5-min Rain = 0
KHA2 110835Z 03014KT 08/M04 A3012 RMK A01 T00831041  RH  041%=      5-min Rain = 0
KHA2 110836Z 02015KT 08/M04 A3012 RMK A01 T00831041  RH  041%=      5-min Rain = 0
KHA2 110837Z 02017KT 08/M04 A3012 RMK A01 T00831041  RH  041%=      5-min Rain = 0
KHA2 110838Z 02018KT 08/M04 A3012 RMK A01 T00831041  RH  041%=      5-min Rain = 0
KHA2 110839Z 02015KT 08/M04 A3012 RMK A01 T00831041  RH  041%=      5-min Rain = 0
KHA2 110840Z 02014KT 08/M04 A3012 RMK A01 T00831041  RH  041%=      5-min Rain = 0
KHA2 110841Z 02015KT 08/M04 A3012 RMK A01 T00821041  RH  041%=      5-min Rain = 0
KHA2 110842Z 02013KT 08/M04 A3012 RMK A01 T00831040  RH  042%=      5-min Rain = 0
KHA2 110843Z 02014KT 08/M04 A3012 RMK A01 T00821041  RH  042%=      5-min Rain = 0
KHA2 110844Z 02015KT 08/M04 A3012 RMK A01 T00821041  RH  041%=      5-min Rain = 0
KHA2 110845Z 02014KT 08/M04 A3012 RMK A01 T00821041  RH  041%=      5-min Rain = 0
KHA2 110846Z 02014KT 08/M04 A3012 RMK A01 T00821041  RH  041%=      5-min Rain = 0
KHA2 110847Z 02014KT 08/M04 A3012 RMK A01 T00821041  RH  041%=      5-min Rain = 0
KHA2 110848Z 02015KT 08/M04 A3012 RMK A01 T00821042  RH  041%=      5-min Rain = 0
KHA2 110849Z 02014KT 08/M04 A3012 RMK A01 T00821042  RH  041%=      5-min Rain = 0
KHA2 110850Z 02013KT 08/M04 A3012 RMK A01 T00821042  RH  041%=      5-min Rain = 0
KHA2 110851Z 02014KT 08/M04 A3012 RMK A01 T00811042  RH  042%=      5-min Rain = 0
KHA2 110852Z 02014KT 08/M04 A3012 RMK A01 T00811042  RH  041%=      5-min Rain = 0
KHA2 110853Z 02014KT 08/M04 A3012 RMK A01 T00811041  RH  042%=      5-min Rain = 0
KHA2 110854Z 02015KT 08/M04 A3012 RMK A01 T00811041  RH  042%=      5-min Rain = 0
KHA2 110855Z 02013KT 08/M04 A3012 RMK A01 T00811042  RH  042%=      5-min Rain = 0
KHA2 110856Z 01014KT 08/M04 A3012 RMK A01 T00801041  RH  042%=      5-min Rain = 0
KHA2 110857Z 02016KT 08/M04 A3012 RMK A01 T00801042  RH  042%=      5-min Rain = 0
KHA2 110858Z 02015KT 08/M04 A3012 RMK A01 T00801042  RH  042%=      5-min Rain = 0
KHA2 110859Z 02014KT 08/M04 A3012 RMK A01 T00801042  RH  042%=      5-min Rain = 0
KHA2 110900Z 02015KT 08/M04 A3012 RMK A01 T00801041  RH  042%=      5-min Rain = 0
KHA2 110901Z 02014KT 08/M04 A3012 RMK A01 T00801041  RH  042%=      5-min Rain = 0
KHA2 110902Z 02015KT 08/M04 A3012 RMK A01 T00801042  RH  042%=      5-min Rain = 0
KHA2 110903Z 01013KT 08/M04 A3012 RMK A01 T00801042  RH  042%=      5-min Rain = 0
KHA2 110904Z 01014KT 08/M04 A3012 RMK A01 T00801042  RH  042%=      5-min Rain = 0
KHA2 110905Z 02015KT 08/M04 A3012 RMK A01 T00801042  RH  042%=      5-min Rain = 0
KHA2 110906Z 02014KT 08/M04 A3012 RMK A01 T00801042  RH  042%=      5-min Rain = 0
KHA2 110907Z 02013KT 08/M04 A3012 RMK A01 T00791043  RH  042%=      5-min Rain = 0
KHA2 110908Z 02015KT 08/M04 A3012 RMK A01 T00791043  RH  042%=      5-min Rain = 0
KHA2 110909Z 02015KT 08/M04 A3012 RMK A01 T00791043  RH  042%=      5-min Rain = 0
KHA2 110910Z 02013KT 08/M04 A3012 RMK A01 T00791043  RH  042%=      5-min Rain = 0
KHA2 110911Z 02016KT 08/M04 A3012 RMK A01 T00791042  RH  042%=      5-min Rain = 0
KHA2 110912Z 02016KT 08/M04 A3012 RMK A01 T00791043  RH  042%=      5-min Rain = 0
KHA2 110913Z 02013KT 08/M04 A3012 RMK A01 T00791044  RH  042%=      5-min Rain = 0
KHA2 110914Z 02014KT 08/M04 A3012 RMK A01 T00791043  RH  042%=      5-min Rain = 0
KHA2 110915Z 02013KT 08/M04 A3012 RMK A01 T00791043  RH  042%=      5-min Rain = 0
KHA2 110916Z 02015KT 08/M04 A3012 RMK A01 T00791043  RH  042%=      5-min Rain = 0
KHA2 110917Z 02015KT 08/M04 A3012 RMK A01 T00781043  RH  042%=      5-min Rain = 0
KHA2 110918Z 02015KT 08/M04 A3013 RMK A01 T00781044  RH  042%=      5-min Rain = 0
KHA2 110919Z 02014KT 08/M04 A3013 RMK A01 T00781044  RH  042%=      5-min Rain = 0
KHA2 110920Z 02014KT 08/M04 A3013 RMK A01 T00781044  RH  042%=      5-min Rain = 0
KHA2 110921Z 02013KT 08/M05 A3013 RMK A01 T00781045  RH  041%=      5-min Rain = 0
KHA2 110922Z 02014KT 08/M05 A3013 RMK A01 T00781045  RH  041%=      5-min Rain = 0
KHA2 110923Z 02016KT 08/M05 A3013 RMK A01 T00781045  RH  041%=      5-min Rain = 0
KHA2 110924Z 02015KT 08/M05 A3013 RMK A01 T00781046  RH  041%=      5-min Rain = 0
KHA2 110925Z 01017KT 08/M05 A3013 RMK A01 T00781047  RH  041%=      5-min Rain = 0
KHA2 110926Z 02015KT 08/M05 A3013 RMK A01 T00781048  RH  041%=      5-min Rain = 0
KHA2 110927Z 01016KT 08/M05 A3013 RMK A01 T00781048  RH  041%=      5-min Rain = 0
KHA2 110928Z 01015KT 08/M05 A3013 RMK A01 T00781049  RH  040%=      5-min Rain = 0
KHA2 110929Z 02018G24KT 08/M05 A3013 RMK A01 T00781048  RH  040%=      5-min Rain = 0
KHA2 110930Z 02020KT 08/M05 A3013 RMK A01 T00781049  RH  040%=      5-min Rain = 0
KHA2 110931Z 01019KT 08/M05 A3013 RMK A01 T00781050  RH  040%=      5-min Rain = 0
KHA2 110932Z 02016KT 08/M05 A3013 RMK A01 T00791049  RH  040%=      5-min Rain = 0
KHA2 110933Z 02020G25KT 08/M05 A3013 RMK A01 T00781049  RH  040%=      5-min Rain = 0
KHA2 110934Z 02020KT 08/M05 A3013 RMK A01 T00781051  RH  040%=      5-min Rain = 0
KHA2 110935Z 02020KT 08/M05 A3013 RMK A01 T00781052  RH  039%=      5-min Rain = 0
KHA2 110936Z 02020KT 08/M05 A3013 RMK A01 T00781052  RH  039%=      5-min Rain = 0
KHA2 110937Z 02018KT 08/M05 A3013 RMK A01 T00781052  RH  039%=      5-min Rain = 0
KHA2 110938Z 02018KT 08/M05 A3013 RMK A01 T00781051  RH  039%=      5-min Rain = 0
KHA2 110939Z 02018KT 08/M05 A3013 RMK A01 T00781051  RH  040%=      5-min Rain = 0
KHA2 110940Z 02018KT 08/M05 A3013 RMK A01 T00771051  RH  040%=      5-min Rain = 0
KHA2 110941Z 01019KT 08/M05 A3013 RMK A01 T00771051  RH  040%=      5-min Rain = 0
KHA2 110942Z 01019KT 08/M05 A3013 RMK A01 T00771051  RH  040%=      5-min Rain = 0
KHA2 110943Z 02018KT 08/M05 A3013 RMK A01 T00771051  RH  040%=      5-min Rain = 0
KHA2 110944Z 01019KT 08/M05 A3013 RMK A01 T00761051  RH  040%=      5-min Rain = 0
KHA2 110945Z 02019KT 08/M05 A3013 RMK A01 T00761051  RH  040%=      5-min Rain = 0
KHA2 110946Z 02017KT 08/M05 A3013 RMK A01 T00761050  RH  041%=      5-min Rain = 0
KHA2 110947Z 02019KT 08/M05 A3013 RMK A01 T00761050  RH  041%=      5-min Rain = 0
KHA2 110948Z 02018KT 08/M05 A3013 RMK A01 T00751050  RH  041%=      5-min Rain = 0
KHA2 110949Z 02019KT 08/M05 A3013 RMK A01 T00751050  RH  041%=      5-min Rain = 0
KHA2 110950Z 02022KT 08/M05 A3013 RMK A01 T00751051  RH  040%=      5-min Rain = 0
KHA2 110951Z 02021KT 08/M05 A3013 RMK A01 T00751050  RH  041%=      5-min Rain = 0
KHA2 110952Z 01019KT 07/M05 A3014 RMK A01 T00741051  RH  041%=      5-min Rain = 0
KHA2 110953Z 02018G23KT 08/M05 A3014 RMK A01 T00751051  RH  040%=      5-min Rain = 0
KHA2 110954Z 02021KT 07/M05 A3014 RMK A01 T00741051  RH  041%=      5-min Rain = 0
KHA2 110955Z 02020KT 07/M05 A3014 RMK A01 T00741051  RH  041%=      5-min Rain = 0
KHA2 110956Z 02018KT 07/M05 A3014 RMK A01 T00731052  RH  041%=      5-min Rain = 0
KHA2 110957Z 02021KT 07/M05 A3014 RMK A01 T00731052  RH  041%=      5-min Rain = 0
KHA2 110958Z 02021KT 07/M05 A3014 RMK A01 T00731052  RH  041%=      5-min Rain = 0
KHA2 110959Z 02018KT 07/M05 A3014 RMK A01 T00731051  RH  041%=      5-min Rain = 0
KHA2 111000Z 01021KT 07/M05 A3014 RMK A01 T00731052  RH  041%=      5-min Rain = 0
KHA2 111001Z 02020G26KT 07/M05 A3014 RMK A01 T00731054  RH  040%=      5-min Rain = 0
KHA2 111002Z 02019KT 07/M05 A3014 RMK A01 T00721054  RH  040%=      5-min Rain = 0
KHA2 111003Z 01020KT 07/M05 A3014 RMK A01 T00721054  RH  040%=      5-min Rain = 0
KHA2 111004Z 02022KT 07/M06 A3014 RMK A01 T00721056  RH  040%=      5-min Rain = 0
KHA2 111005Z 02021KT 07/M06 A3014 RMK A01 T00711056  RH  040%=      5-min Rain = 0
KHA2 111006Z 01022G27KT 07/M06 A3014 RMK A01 T00711057  RH  040%=      5-min Rain = 0
KHA2 111007Z 02024KT 07/M06 A3014 RMK A01 T00711058  RH  039%=      5-min Rain = 0
KHA2 111008Z 02024KT 07/M06 A3014 RMK A01 T00711058  RH  039%=      5-min Rain = 0
KHA2 111009Z 02025KT 07/M06 A3014 RMK A01 T00711058  RH  039%=      5-min Rain = 0
KHA2 111010Z 02021KT 07/M06 A3014 RMK A01 T00711058  RH  039%=      5-min Rain = 0
KHA2 111011Z 02021KT 07/M06 A3014 RMK A01 T00701059  RH  039%=      5-min Rain = 0
KHA2 111012Z 02022KT 07/M06 A3014 RMK A01 T00701060  RH  039%=      5-min Rain = 0
KHA2 111013Z 02022KT 07/M06 A3014 RMK A01 T00701061  RH  039%=      5-min Rain = 0
KHA2 111014Z 02018KT 07/M06 A3014 RMK A01 T00691061  RH  039%=      5-min Rain = 0
KHA2 111015Z 02021G26KT 07/M06 A3014 RMK A01 T00691061  RH  039%=      5-min Rain = 0
KHA2 111016Z 02019KT 07/M06 A3014 RMK A01 T00691061  RH  039%=      5-min Rain = 0
KHA2 111017Z 02021KT 07/M06 A3014 RMK A01 T00681061  RH  039%=      5-min Rain = 0
KHA2 111018Z 02023G28KT 07/M06 A3014 RMK A01 T00681062  RH  039%=      5-min Rain = 0
KHA2 111019Z 02022KT 07/M06 A3014 RMK A01 T00681063  RH  039%=      5-min Rain = 0
KHA2 111020Z 02021G26KT 07/M06 A3014 RMK A01 T00681063  RH  039%=      5-min Rain = 0
KHA2 111021Z 02020KT 07/M06 A3015 RMK A01 T00681062  RH  039%=      5-min Rain = 0
KHA2 111022Z 02021KT 07/M06 A3015 RMK A01 T00671063  RH  039%=      5-min Rain = 0
KHA2 111023Z 02022KT 07/M06 A3015 RMK A01 T00671063  RH  039%=      5-min Rain = 0
KHA2 111024Z 02022KT 07/M06 A3015 RMK A01 T00671063  RH  039%=      5-min Rain = 0
KHA2 111025Z 02020KT 07/M06 A3015 RMK A01 T00671063  RH  039%=      5-min Rain = 0
KHA2 111026Z 02018KT 07/M06 A3015 RMK A01 T00671063  RH  039%=      5-min Rain = 0
KHA2 111027Z 02019KT 07/M06 A3015 RMK A01 T00671064  RH  039%=      5-min Rain = 0
KHA2 111028Z 02022KT 07/M06 A3015 RMK A01 T00661064  RH  039%=      5-min Rain = 0
KHA2 111029Z 02023KT 07/M07 A3015 RMK A01 T00661065  RH  039%=      5-min Rain = 0
KHA2 111030Z 02024KT 07/M07 A3015 RMK A01 T00661065  RH  039%=      5-min Rain = 0
KHA2 111031Z 02020G25KT 07/M07 A3016 RMK A01 T00661065  RH  039%=      5-min Rain = 0
KHA2 111032Z 02023KT 07/M07 A3016 RMK A01 T00651066  RH  039%=      5-min Rain = 0
KHA2 111033Z 02022KT 07/M07 A3016 RMK A01 T00651066  RH  039%=      5-min Rain = 0
KHA2 111034Z 02019KT 07/M07 A3016 RMK A01 T00651066  RH  039%=      5-min Rain = 0
KHA2 111035Z 02021KT 07/M07 A3016 RMK A01 T00651067  RH  039%=      5-min Rain = 0
KHA2 111036Z 02020KT 06/M07 A3016 RMK A01 T00641067  RH  038%=      5-min Rain = 0
KHA2 111037Z 02017KT 06/M07 A3016 RMK A01 T00641067  RH  039%=      5-min Rain = 0
KHA2 111038Z 02017KT 06/M07 A3016 RMK A01 T00641067  RH  039%=      5-min Rain = 0
KHA2 111039Z 02019KT 06/M07 A3016 RMK A01 T00641068  RH  038%=      5-min Rain = 0
KHA2 111040Z 02023KT 06/M07 A3016 RMK A01 T00641068  RH  038%=      5-min Rain = 0
KHA2 111041Z 02022KT 06/M07 A3016 RMK A01 T00641068  RH  039%=      5-min Rain = 0
KHA2 111042Z 02022KT 06/M07 A3016 RMK A01 T00631067  RH  039%=      5-min Rain = 0
KHA2 111043Z 02020G25KT 06/M07 A3017 RMK A01 T00631068  RH  039%=      5-min Rain = 0
KHA2 111044Z 02019KT 06/M07 A3017 RMK A01 T00631067  RH  039%=      5-min Rain = 0
KHA2 111045Z 02019KT 06/M07 A3017 RMK A01 T00631067  RH  039%=      5-min Rain = 0
KHA2 111046Z 02019KT 06/M07 A3017 RMK A01 T00631066  RH  039%=      5-min Rain = 0
KHA2 111047Z 02014KT 06/M07 A3017 RMK A01 T00631067  RH  039%=      5-min Rain = 0
KHA2 111048Z 01019G24KT 06/M07 A3017 RMK A01 T00631067  RH  039%=      5-min Rain = 0
KHA2 111049Z 01018KT 06/M07 A3017 RMK A01 T00631069  RH  038%=      5-min Rain = 0
KHA2 111050Z 02016KT 06/M07 A3017 RMK A01 T00621070  RH  038%=      5-min Rain = 0
KHA2 111051Z 02018KT 06/M07 A3017 RMK A01 T00621068  RH  039%=      5-min Rain = 0
KHA2 111052Z 02020KT 06/M07 A3017 RMK A01 T00611069  RH  039%=      5-min Rain = 0
KHA2 111053Z 02020KT 06/M07 A3017 RMK A01 T00611069  RH  039%=      5-min Rain = 0
KHA2 111054Z 02019KT 06/M07 A3017 RMK A01 T00611068  RH  039%=      5-min Rain = 0
KHA2 111055Z 02018KT 06/M07 A3017 RMK A01 T00611068  RH  039%=      5-min Rain = 0
KHA2 111056Z 02015KT 06/M07 A3017 RMK A01 T00611068  RH  039%=      5-min Rain = 0
KHA2 111057Z 02018KT 06/M07 A3017 RMK A01 T00601070  RH  039%=      5-min Rain = 0
KHA2 111058Z 02017KT 06/M07 A3017 RMK A01 T00601070  RH  039%=      5-min Rain = 0
KHA2 111059Z 01017KT 06/M07 A3017 RMK A01 T00601071  RH  039%=      5-min Rain = 0
KHA2 111100Z 01017KT 06/M07 A3017 RMK A01 T00591071  RH  039%=      5-min Rain = 0
KHA2 111101Z 01018KT 06/M07 A3017 RMK A01 T00591071  RH  039%=      5-min Rain = 0
KHA2 111102Z 01016KT 06/M07 A3017 RMK A01 T00581071  RH  039%=      5-min Rain = 0
KHA2 111103Z 01020KT 06/M07 A3017 RMK A01 T00581071  RH  039%=      5-min Rain = 0
KHA2 111104Z 01023KT 06/M07 A3017 RMK A01 T00571071  RH  039%=      5-min Rain = 0
KHA2 111105Z 01022KT 06/M07 A3017 RMK A01 T00571071  RH  039%=      5-min Rain = 0
KHA2 111106Z 01022G27KT 06/M07 A3017 RMK A01 T00561072  RH  039%=      5-min Rain = 0
KHA2 111107Z 02022G27KT 06/M07 A3017 RMK A01 T00561072  RH  039%=      5-min Rain = 0
KHA2 111108Z 02021KT 06/M07 A3017 RMK A01 T00551071  RH  040%=      5-min Rain = 0
KHA2 111109Z 02019KT 06/M07 A3017 RMK A01 T00551071  RH  040%=      5-min Rain = 0
KHA2 111110Z 02022G27KT 06/M07 A3017 RMK A01 T00551070  RH  040%=      5-min Rain = 0
KHA2 111111Z 02022KT 06/M07 A3017 RMK A01 T00551070  RH  040%=      5-min Rain = 0
KHA2 111112Z 02023G28KT 06/M07 A3017 RMK A01 T00551070  RH  040%=      5-min Rain = 0
KHA2 111113Z 02021G26KT 06/M07 A3017 RMK A01 T00551072  RH  040%=      5-min Rain = 0
KHA2 111114Z 02024KT 05/M07 A3017 RMK A01 T00541071  RH  040%=      5-min Rain = 0
KHA2 111115Z 02024KT 05/M07 A3017 RMK A01 T00541071  RH  040%=      5-min Rain = 0
KHA2 111116Z 02023KT 05/M07 A3018 RMK A01 T00541070  RH  040%=      5-min Rain = 0
KHA2 111117Z 02022KT 05/M07 A3018 RMK A01 T00531070  RH  040%=      5-min Rain = 0
KHA2 111118Z 01022KT 05/M07 A3018 RMK A01 T00531071  RH  040%=      5-min Rain = 0
KHA2 111119Z 01018KT 05/M07 A3018 RMK A01 T00531072  RH  040%=      5-min Rain = 0
KHA2 111120Z 01017KT 05/M07 A3018 RMK A01 T00521073  RH  040%=      5-min Rain = 0
KHA2 111121Z 02017KT 05/M07 A3018 RMK A01 T00521072  RH  040%=      5-min Rain = 0
KHA2 111122Z 01019G25KT 05/M07 A3018 RMK A01 T00521071  RH  041%=      5-min Rain = 0
KHA2 111123Z 02022KT 05/M07 A3018 RMK A01 T00521071  RH  041%=      5-min Rain = 0
KHA2 111124Z 02023KT 05/M07 A3018 RMK A01 T00521070  RH  041%=      5-min Rain = 0
KHA2 111125Z 02021G26KT 05/M07 A3018 RMK A01 T00511071  RH  041%=      5-min Rain = 0
KHA2 111126Z 02019KT 05/M07 A3019 RMK A01 T00511071  RH  041%=      5-min Rain = 0
KHA2 111127Z 02021KT 05/M07 A3019 RMK A01 T00511070  RH  041%=      5-min Rain = 0
KHA2 111128Z 02019G24KT 05/M07 A3019 RMK A01 T00511070  RH  041%=      5-min Rain = 0
KHA2 111129Z 02019KT 05/M07 A3019 RMK A01 T00511070  RH  041%=      5-min Rain = 0
KHA2 111130Z 01019KT 05/M07 A3019 RMK A01 T00511070  RH  041%=      5-min Rain = 0
KHA2 111131Z 01017KT 05/M07 A302 RMK A01 T00511070  RH  041%=      5-min Rain = 0
KHA2 111132Z 01016KT 05/M07 A302 RMK A01 T00501072  RH  041%=      5-min Rain = 0
KHA2 111133Z 01015KT 05/M07 A302 RMK A01 T00501071  RH  041%=      5-min Rain = 0
KHA2 111134Z 02018KT 05/M07 A302 RMK A01 T00501071  RH  041%=      5-min Rain = 0
KHA2 111135Z 01017KT 05/M07 A302 RMK A01 T00501071  RH  041%=      5-min Rain = 0
KHA2 111136Z 01017KT 05/M07 A302 RMK A01 T00501071  RH  041%=      5-min Rain = 0
KHA2 111137Z 01017KT 05/M07 A302 RMK A01 T00501071  RH  041%=      5-min Rain = 0
KHA2 111138Z 01017KT 05/M07 A302 RMK A01 T00501071  RH  041%=      5-min Rain = 0
KHA2 111139Z 02017KT 05/M07 A302 RMK A01 T00501071  RH  041%=      5-min Rain = 0
KHA2 111140Z 02020KT 05/M07 A302 RMK A01 T00491070  RH  042%=      5-min Rain = 0
KHA2 111141Z 01017KT 05/M07 A302 RMK A01 T00491070  RH  042%=      5-min Rain = 0
KHA2 111142Z 02018KT 05/M07 A302 RMK A01 T00491070  RH  042%=      5-min Rain = 0
KHA2 111143Z 01017KT 05/M07 A302 RMK A01 T00491070  RH  042%=      5-min Rain = 0
KHA2 111144Z 01017KT 05/M07 A302 RMK A01 T00481070  RH  042%=      5-min Rain = 0
KHA2 111145Z 01023KT 05/M07 A302 RMK A01 T00481069  RH  042%=      5-min Rain = 0
KHA2 111146Z 01021KT 05/M07 A302 RMK A01 T00481069  RH  042%=      5-min Rain = 0
KHA2 111147Z 01023KT 05/M07 A302 RMK A01 T00471070  RH  043%=      5-min Rain = 0
KHA2 111148Z 01021KT 05/M07 A302 RMK A01 T00471069  RH  043%=      5-min Rain = 0
KHA2 111149Z 01019KT 05/M07 A3021 RMK A01 T00461068  RH  043%=      5-min Rain = 0
KHA2 111150Z 01016KT 05/M07 A3021 RMK A01 T00461068  RH  043%=      5-min Rain = 0
KHA2 111151Z 01019KT 05/M07 A302 RMK A01 T00461067  RH  044%=      5-min Rain = 0
KHA2 111152Z 01020G25KT 05/M07 A3021 RMK A01 T00461068  RH  044%=      5-min Rain = 0
KHA2 111153Z 02021KT 05/M07 A302 RMK A01 T00451067  RH  044%=      5-min Rain = 0
KHA2 111154Z 01019KT 05/M07 A302 RMK A01 T00451066  RH  044%=      5-min Rain = 0
KHA2 111155Z 02017KT 04/M07 A3021 RMK A01 T00441066  RH  044%=      5-min Rain = 0
KHA2 111156Z 01018KT 04/M07 A3021 RMK A01 T00441066  RH  045%=      5-min Rain = 0
KHA2 111157Z 02019KT 04/M07 A3021 RMK A01 T00431066  RH  045%=      5-min Rain = 0
KHA2 111158Z 02016KT 04/M07 A3021 RMK A01 T00431065  RH  045%=      5-min Rain = 0
KHA2 111159Z 02016KT 04/M07 A3021 RMK A01 T00431065  RH  045%=      5-min Rain = 0
KHA2 111200Z 01017KT 04/M06 A3021 RMK A01 T00421064  RH  046%=      5-min Rain = 0
KHA2 111201Z 02015KT 04/M06 A3021 RMK A01 T00421064  RH  046%=      5-min Rain = 0
KHA2 111202Z 01018KT 04/M07 A3021 RMK A01 T00421065  RH  046%=      5-min Rain = 0
KHA2 111203Z 01019KT 04/M07 A3021 RMK A01 T00411065  RH  046%=      5-min Rain = 0
KHA2 111204Z 02017KT 04/M06 A3021 RMK A01 T00411064  RH  046%=      5-min Rain = 0
KHA2 111205Z 02018KT 04/M06 A302 RMK A01 T00411062  RH  047%=      5-min Rain = 0
KHA2 111206Z 02015KT 04/M06 A3021 RMK A01 T00411062  RH  047%=      5-min Rain = 0
KHA2 111207Z 02017G22KT 04/M06 A3021 RMK A01 T00401063  RH  047%=      5-min Rain = 0
KHA2 111208Z 02019KT 04/M06 A302 RMK A01 T00401063  RH  047%=      5-min Rain = 0
KHA2 111209Z 02017KT 04/M06 A3021 RMK A01 T00401062  RH  047%=      5-min Rain = 0
KHA2 111210Z 02017KT 04/M06 A3021 RMK A01 T00401062  RH  047%=      5-min Rain = 0
KHA2 111211Z 02016KT 04/M06 A3021 RMK A01 T00391063  RH  047%=      5-min Rain = 0
KHA2 111212Z 01018KT 04/M06 A3021 RMK A01 T00391063  RH  047%=      5-min Rain = 0
KHA2 111213Z 01018KT 04/M06 A3021 RMK A01 T00381063  RH  048%=      5-min Rain = 0
KHA2 111214Z 01015KT 04/M06 A3021 RMK A01 T00381063  RH  048%=      5-min Rain = 0
KHA2 111215Z 01017KT 04/M06 A3021 RMK A01 T00371064  RH  048%=      5-min Rain = 0
KHA2 111216Z 02018KT 04/M06 A3021 RMK A01 T00371063  RH  048%=      5-min Rain = 0
KHA2 111217Z 01016KT 04/M06 A3021 RMK A01 T00361062  RH  049%=      5-min Rain = 0
KHA2 111218Z 01020KT 04/M06 A3021 RMK A01 T00361062  RH  049%=      5-min Rain = 0
KHA2 111219Z 01020KT 04/M06 A3021 RMK A01 T00351062  RH  049%=      5-min Rain = 0
KHA2 111220Z 02018KT 04/M06 A3021 RMK A01 T00351062  RH  049%=      5-min Rain = 0
KHA2 111221Z 01018KT 04/M06 A3021 RMK A01 T00351062  RH  049%=      5-min Rain = 0
KHA2 111222Z 01020KT 04/M06 A3021 RMK A01 T00351061  RH  049%=      5-min Rain = 0
KHA2 111223Z 02018KT 03/M06 A3021 RMK A01 T00341061  RH  050%=      5-min Rain = 0
KHA2 111224Z 01016KT 03/M06 A3021 RMK A01 T00341061  RH  050%=      5-min Rain = 0
KHA2 111225Z 02018KT 03/M06 A3021 RMK A01 T00341061  RH  050%=      5-min Rain = 0
KHA2 111226Z 02018KT 03/M06 A3021 RMK A01 T00341060  RH  050%=      5-min Rain = 0
KHA2 111227Z 01015KT 03/M06 A3021 RMK A01 T00341060  RH  050%=      5-min Rain = 0
KHA2 111228Z 01014KT 03/M06 A3021 RMK A01 T00331061  RH  050%=      5-min Rain = 0
KHA2 111229Z 02016KT 03/M06 A3021 RMK A01 T00331062  RH  050%=      5-min Rain = 0
KHA2 111230Z 02015KT 03/M06 A3021 RMK A01 T00321062  RH  050%=      5-min Rain = 0
KHA2 111231Z 01016KT 03/M06 A3021 RMK A01 T00321062  RH  050%=      5-min Rain = 0
KHA2 111232Z 01016KT 03/M06 A3021 RMK A01 T00321062  RH  050%=      5-min Rain = 0
KHA2 111233Z 01015KT 03/M06 A3021 RMK A01 T00321060  RH  051%=      5-min Rain = 0
KHA2 111234Z 02018KT 03/M06 A3021 RMK A01 T00311061  RH  051%=      5-min Rain = 0
KHA2 111235Z 01017KT 03/M06 A3021 RMK A01 T00311061  RH  051%=      5-min Rain = 0
KHA2 111236Z 02017KT 03/M06 A3021 RMK A01 T00321060  RH  051%=      5-min Rain = 0
KHA2 111237Z 02017G23KT 03/M06 A3021 RMK A01 T00311060  RH  051%=      5-min Rain = 0
KHA2 111238Z 02017KT 03/M06 A3021 RMK A01 T00311060  RH  051%=      5-min Rain = 0
KHA2 111239Z 01015KT 03/M06 A3021 RMK A01 T00311061  RH  051%=      5-min Rain = 0
KHA2 111240Z 01016KT 03/M06 A3021 RMK A01 T00311061  RH  051%=      5-min Rain = 0
KHA2 111241Z 01015KT 03/M06 A3021 RMK A01 T00311060  RH  051%=      5-min Rain = 0
KHA2 111242Z 01016KT 03/M06 A3021 RMK A01 T00301060  RH  052%=      5-min Rain = 0
KHA2 111243Z 01017KT 03/M06 A3021 RMK A01 T00301060  RH  051%=      5-min Rain = 0
KHA2 111244Z 02016KT 03/M06 A3021 RMK A01 T00301060  RH  052%=      5-min Rain = 0
KHA2 111245Z 02014KT 03/M06 A3022 RMK A01 T00301059  RH  052%=      5-min Rain = 0
KHA2 111246Z 01016KT 03/M06 A3022 RMK A01 T00301059  RH  052%=      5-min Rain = 0
KHA2 111247Z 01017KT 03/M06 A3022 RMK A01 T00301059  RH  052%=      5-min Rain = 0
KHA2 111248Z 01017KT 03/M06 A3022 RMK A01 T00301059  RH  052%=      5-min Rain = 0
KHA2 111249Z 01017KT 03/M06 A3022 RMK A01 T00301059  RH  052%=      5-min Rain = 0
KHA2 111250Z 01017KT 03/M06 A3022 RMK A01 T00301058  RH  052%=      5-min Rain = 0
KHA2 111251Z 01020KT 03/M06 A3022 RMK A01 T00291059  RH  052%=      5-min Rain = 0
KHA2 111252Z 01016KT 03/M06 A3022 RMK A01 T00291058  RH  053%=      5-min Rain = 0
KHA2 111253Z 01018G23KT 03/M06 A3022 RMK A01 T00291058  RH  053%=      5-min Rain = 0
KHA2 111254Z 01020KT 03/M06 A3022 RMK A01 T00291057  RH  053%=      5-min Rain = 0
KHA2 111255Z 01019KT 03/M06 A3022 RMK A01 T00291056  RH  054%=      5-min Rain = 0
KHA2 111256Z 01017KT 03/M06 A3022 RMK A01 T00291056  RH  054%=      5-min Rain = 0
KHA2 111257Z 01017KT 03/M06 A3022 RMK A01 T00291055  RH  054%=      5-min Rain = 0
KHA2 111258Z 01018KT 03/M06 A3022 RMK A01 T00291056  RH  054%=      5-min Rain = 0
KHA2 111259Z 01017KT 03/M06 A3023 RMK A01 T00291055  RH  054%=      5-min Rain = 0
KHA2 111300Z 02017KT 03/M06 A3022 RMK A01 T00281055  RH  054%=      5-min Rain = 0
KHA2 111301Z 01016KT 03/M05 A3023 RMK A01 T00281054  RH  055%=      5-min Rain = 0
KHA2 111302Z 02017KT 03/M05 A3023 RMK A01 T00281054  RH  055%=      5-min Rain = 0
KHA2 111303Z 02017KT 03/M06 A3023 RMK A01 T00281055  RH  055%=      5-min Rain = 0
KHA2 111304Z 02016KT 03/M05 A3023 RMK A01 T00281054  RH  055%=      5-min Rain = 0
KHA2 111305Z 02014KT 03/M06 A3023 RMK A01 T00271055  RH  055%=      5-min Rain = 0
KHA2 111306Z 01015KT 03/M06 A3023 RMK A01 T00271055  RH  055%=      5-min Rain = 0
KHA2 111307Z 01014KT 03/M06 A3023 RMK A01 T00271056  RH  054%=      5-min Rain = 0
KHA2 111308Z 01016KT 03/M06 A3023 RMK A01 T00261057  RH  054%=      5-min Rain = 0
KHA2 111309Z 01016KT 03/M06 A3023 RMK A01 T00261058  RH  054%=      5-min Rain = 0
KHA2 111310Z 01016KT 03/M06 A3023 RMK A01 T00261060  RH  053%=      5-min Rain = 0
KHA2 111311Z 01016KT 03/M06 A3023 RMK A01 T00251061  RH  053%=      5-min Rain = 0
KHA2 111312Z 00016KT 03/M06 A3023 RMK A01 T00251061  RH  053%=      5-min Rain = 0
KHA2 111313Z 01016KT 03/M06 A3023 RMK A01 T00251061  RH  053%=      5-min Rain = 0
KHA2 111314Z 01018KT 02/M06 A3023 RMK A01 T00241061  RH  053%=      5-min Rain = 0
KHA2 111315Z 00018KT 02/M06 A3023 RMK A01 T00241060  RH  054%=      5-min Rain = 0
KHA2 111316Z 01018KT 02/M06 A3023 RMK A01 T00241059  RH  054%=      5-min Rain = 0
KHA2 111317Z 01019KT 02/M06 A3023 RMK A01 T00231058  RH  055%=      5-min Rain = 0
KHA2 111318Z 01019G25KT 02/M06 A3023 RMK A01 T00231057  RH  055%=      5-min Rain = 0
KHA2 111319Z 01021KT 02/M06 A3023 RMK A01 T00231056  RH  056%=      5-min Rain = 0
KHA2 111320Z 01019KT 02/M06 A3023 RMK A01 T00231056  RH  056%=      5-min Rain = 0
KHA2 111321Z 01018KT 02/M06 A3023 RMK A01 T00231056  RH  056%=      5-min Rain = 0
KHA2 111322Z 01018KT 02/M06 A3024 RMK A01 T00231056  RH  056%=      5-min Rain = 0
KHA2 111323Z 01017KT 02/M06 A3024 RMK A01 T00231055  RH  056%=      5-min Rain = 0
KHA2 111324Z 01016KT 02/M05 A3024 RMK A01 T00231054  RH  056%=      5-min Rain = 0
KHA2 111325Z 02015KT 02/M06 A3024 RMK A01 T00231055  RH  057%=      5-min Rain = 0
KHA2 111326Z 02016KT 02/M05 A3023 RMK A01 T00231054  RH  057%=      5-min Rain = 0
KHA2 111327Z 01016KT 02/M05 A3023 RMK A01 T00231054  RH  057%=      5-min Rain = 0
KHA2 111328Z 01017KT 02/M06 A3024 RMK A01 T00221055  RH  057%=      5-min Rain = 0
KHA2 111329Z 01018KT 02/M06 A3023 RMK A01 T00221055  RH  057%=      5-min Rain = 0
KHA2 111330Z 01019KT 02/M06 A3023 RMK A01 T00221055  RH  057%=      5-min Rain = 0
KHA2 111331Z 01017KT 02/M06 A3024 RMK A01 T00221055  RH  057%=      5-min Rain = 0
KHA2 111332Z 01017KT 02/M06 A3024 RMK A01 T00221056  RH  057%=      5-min Rain = 0
KHA2 111333Z 01016KT 02/M06 A3024 RMK A01 T00221055  RH  057%=      5-min Rain = 0
KHA2 111334Z 01015KT 02/M06 A3024 RMK A01 T00211056  RH  057%=      5-min Rain = 0
KHA2 111335Z 01018KT 02/M06 A3024 RMK A01 T00211056  RH  057%=      5-min Rain = 0
KHA2 111336Z 01020KT 02/M06 A3023 RMK A01 T00211056  RH  057%=      5-min Rain = 0
KHA2 111337Z 01019KT 02/M06 A3023 RMK A01 T00211056  RH  057%=      5-min Rain = 0
KHA2 111338Z 01019KT 02/M06 A3023 RMK A01 T00211055  RH  057%=      5-min Rain = 0
KHA2 111339Z 01017KT 02/M06 A3023 RMK A01 T00201055  RH  057%=      5-min Rain = 0
KHA2 111340Z 01018KT 02/M06 A3023 RMK A01 T00211055  RH  057%=      5-min Rain = 0
KHA2 111341Z 01020KT 02/M06 A3023 RMK A01 T00201055  RH  057%=      5-min Rain = 0
KHA2 111342Z 01017KT 02/M06 A3023 RMK A01 T00211055  RH  057%=      5-min Rain = 0
KHA2 111343Z 01017G22KT 02/M06 A3023 RMK A01 T00201055  RH  057%=      5-min Rain = 0
KHA2 111344Z 01019KT 02/M06 A3023 RMK A01 T00201055  RH  057%=      5-min Rain = 0
KHA2 111345Z 01020G26KT 02/M06 A3024 RMK A01 T00201055  RH  058%=      5-min Rain = 0
KHA2 111346Z 01016KT 02/M05 A3024 RMK A01 T00201054  RH  058%=      5-min Rain = 0
KHA2 111347Z 01019KT 02/M05 A3024 RMK A01 T00201054  RH  058%=      5-min Rain = 0
KHA2 111348Z 01019KT 02/M05 A3024 RMK A01 T00211054  RH  058%=      5-min Rain = 0
KHA2 111349Z 01019KT 02/M05 A3024 RMK A01 T00201054  RH  058%=      5-min Rain = 0
KHA2 111350Z 01020KT 02/M05 A3024 RMK A01 T00201054  RH  058%=      5-min Rain = 0
KHA2 111351Z 01017KT 02/M05 A3024 RMK A01 T00201054  RH  058%=      5-min Rain = 0
KHA2 111352Z 01017KT 02/M05 A3025 RMK A01 T00211053  RH  058%=      5-min Rain = 0
KHA2 111353Z 01019G24KT 02/M05 A3025 RMK A01 T00221052  RH  058%=      5-min Rain = 0
KHA2 111354Z 01020KT 02/M05 A3025 RMK A01 T00221053  RH  058%=      5-min Rain = 0
KHA2 111355Z 01017KT 02/M05 A3025 RMK A01 T00221053  RH  058%=      5-min Rain = 0
KHA2 111356Z 01019KT 02/M05 A3025 RMK A01 T00221052  RH  058%=      5-min Rain = 0
KHA2 111357Z 01016KT 02/M05 A3025 RMK A01 T00221053  RH  058%=      5-min Rain = 0
KHA2 111358Z 01020KT 02/M05 A3025 RMK A01 T00231052  RH  058%=      5-min Rain = 0
KHA2 111359Z 01022KT 02/M05 A3025 RMK A01 T00221053  RH  057%=      5-min Rain = 0
KHA2 111400Z 01019KT 02/M05 A3025 RMK A01 T00221053  RH  057%=      5-min Rain = 0
KHA2 111401Z 01019G24KT 02/M05 A3025 RMK A01 T00221052  RH  058%=      5-min Rain = 0
KHA2 111402Z 01017G22KT 02/M05 A3025 RMK A01 T00221053  RH  057%=      5-min Rain = 0
KHA2 111403Z 01021KT 02/M05 A3025 RMK A01 T00231053  RH  057%=      5-min Rain = 0
KHA2 111404Z 01024KT 02/M05 A3025 RMK A01 T00221054  RH  057%=      5-min Rain = 0
KHA2 111405Z 01020KT 02/M05 A3025 RMK A01 T00221053  RH  057%=      5-min Rain = 0
KHA2 111406Z 01022KT 02/M05 A3025 RMK A01 T00221054  RH  057%=      5-min Rain = 0
KHA2 111407Z 01022KT 02/M05 A3025 RMK A01 T00221054  RH  057%=      5-min Rain = 0
KHA2 111408Z 01020KT 02/M06 A3025 RMK A01 T00221055  RH  057%=      5-min Rain = 0
KHA2 111409Z 01020KT 02/M06 A3025 RMK A01 T00221055  RH  057%=      5-min Rain = 0
KHA2 111410Z 02022KT 02/M05 A3025 RMK A01 T00221054  RH  057%=      5-min Rain = 0
KHA2 111411Z 01024G29KT 02/M05 A3025 RMK A01 T00221054  RH  057%=      5-min Rain = 0
KHA2 111412Z 01021G27KT 02/M05 A3025 RMK A01 T00221054  RH  057%=      5-min Rain = 0
KHA2 111413Z 01021KT 02/M05 A3025 RMK A01 T00221054  RH  057%=      5-min Rain = 0
KHA2 111414Z 01021KT 02/M05 A3025 RMK A01 T00231054  RH  057%=      5-min Rain = 0
KHA2 111415Z 01022KT 02/M05 A3025 RMK A01 T00231054  RH  057%=      5-min Rain = 0
KHA2 111416Z 01022KT 02/M06 A3025 RMK A01 T00231055  RH  057%=      5-min Rain = 0
KHA2 111417Z 01020KT 02/M05 A3025 RMK A01 T00231054  RH  057%=      5-min Rain = 0
KHA2 111418Z 01021KT 02/M05 A3025 RMK A01 T00231053  RH  057%=      5-min Rain = 0
KHA2 111419Z 01021KT 02/M05 A3025 RMK A01 T00241053  RH  057%=      5-min Rain = 0
KHA2 111420Z 01021KT 02/M05 A3025 RMK A01 T00241053  RH  057%=      5-min Rain = 0
KHA2 111421Z 01024KT 02/M05 A3025 RMK A01 T00241053  RH  057%=      5-min Rain = 0
KHA2 111422Z 01020KT 02/M05 A3025 RMK A01 T00241052  RH  057%=      5-min Rain = 0
KHA2 111423Z 01022KT 03/M05 A3025 RMK A01 T00251052  RH  057%=      5-min Rain = 0
KHA2 111424Z 01021KT 03/M05 A3025 RMK A01 T00261052  RH  056%=      5-min Rain = 0
KHA2 111425Z 01023KT 03/M05 A3025 RMK A01 T00271051  RH  056%=      5-min Rain = 0
KHA2 111426Z 01021KT 03/M05 A3025 RMK A01 T00281051  RH  056%=      5-min Rain = 0
KHA2 111427Z 01020KT 03/M05 A3025 RMK A01 T00281050  RH  056%=      5-min Rain = 0
KHA2 111428Z 01018KT 03/M05 A3025 RMK A01 T00291050  RH  056%=      5-min Rain = 0
KHA2 111429Z 01019KT 03/M05 A3025 RMK A01 T00311049  RH  056%=      5-min Rain = 0
KHA2 111430Z 01021G28KT 03/M05 A3026 RMK A01 T00321049  RH  055%=      5-min Rain = 0
KHA2 111431Z 02022KT 03/M05 A3026 RMK A01 T00331050  RH  055%=      5-min Rain = 0
KHA2 111432Z 01019KT 03/M05 A3026 RMK A01 T00331050  RH  055%=      5-min Rain = 0
KHA2 111433Z 01022KT 03/M05 A3026 RMK A01 T00331050  RH  055%=      5-min Rain = 0
KHA2 111434Z 02024KT 03/M05 A3025 RMK A01 T00321051  RH  055%=      5-min Rain = 0
KHA2 111435Z 01021KT 03/M05 A3026 RMK A01 T00301051  RH  055%=      5-min Rain = 0
KHA2 111436Z 01018KT 03/M05 A3026 RMK A01 T00311049  RH  056%=      5-min Rain = 0
KHA2 111437Z 01018G23KT 03/M05 A3026 RMK A01 T00311049  RH  056%=      5-min Rain = 0
KHA2 111438Z 01022KT 03/M05 A3026 RMK A01 T00321051  RH  054%=      5-min Rain = 0
KHA2 111439Z 01023KT 03/M05 A3026 RMK A01 T00311053  RH  054%=      5-min Rain = 0
KHA2 111440Z 01020KT 03/M05 A3026 RMK A01 T00311054  RH  054%=      5-min Rain = 0
KHA2 111441Z 01022KT 03/M05 A3026 RMK A01 T00311053  RH  054%=      5-min Rain = 0
KHA2 111442Z 01021KT 03/M05 A3026 RMK A01 T00311054  RH  054%=      5-min Rain = 0
KHA2 111443Z 01020KT 03/M05 A3026 RMK A01 T00311053  RH  054%=      5-min Rain = 0
KHA2 111444Z 01019G25KT 03/M05 A3026 RMK A01 T00311053  RH  054%=      5-min Rain = 0
KHA2 111445Z 02022KT 03/M05 A3026 RMK A01 T00311054  RH  054%=      5-min Rain = 0
KHA2 111446Z 02022KT 03/M05 A3026 RMK A01 T00311054  RH  054%=      5-min Rain = 0
KHA2 111447Z 01023G28KT 03/M06 A3026 RMK A01 T00301055  RH  054%=      5-min Rain = 0
KHA2 111448Z 01023KT 03/M06 A3026 RMK A01 T00301056  RH  053%=      5-min Rain = 0
KHA2 111449Z 01023KT 03/M06 A3026 RMK A01 T00301056  RH  053%=      5-min Rain = 0
KHA2 111450Z 01021KT 03/M06 A3026 RMK A01 T00301057  RH  053%=      5-min Rain = 0
KHA2 111451Z 01022KT 03/M06 A3026 RMK A01 T00301057  RH  053%=      5-min Rain = 0
KHA2 111452Z 01020KT 03/M06 A3026 RMK A01 T00291057  RH  053%=      5-min Rain = 0
KHA2 111453Z 02021KT 03/M06 A3026 RMK A01 T00301057  RH  053%=      5-min Rain = 0
KHA2 111454Z 02019KT 03/M06 A3027 RMK A01 T00301056  RH  053%=      5-min Rain = 0
KHA2 111455Z 01019KT 03/M06 A3027 RMK A01 T00311056  RH  053%=      5-min Rain = 0
KHA2 111456Z 01022KT 03/M06 A3027 RMK A01 T00321057  RH  052%=      5-min Rain = 0
KHA2 111457Z 01022KT 03/M06 A3027 RMK A01 T00331058  RH  051%=      5-min Rain = 0
KHA2 111458Z 01021KT 03/M06 A3027 RMK A01 T00331058  RH  051%=      5-min Rain = 0
KHA2 111459Z 01022KT 03/M06 A3027 RMK A01 T00331058  RH  051%=      5-min Rain = 0
KHA2 111500Z 00022KT 03/M06 A3027 RMK A01 T00341058  RH  051%=      5-min Rain = 0
KHA2 111501Z 01022KT 03/M06 A3027 RMK A01 T00331060  RH  051%=      5-min Rain = 0
KHA2 111502Z 00021KT 03/M06 A3027 RMK A01 T00331061  RH  050%=      5-min Rain = 0
KHA2 111503Z 01022G27KT 03/M06 A3027 RMK A01 T00331061  RH  050%=      5-min Rain = 0
KHA2 111504Z 01019KT 03/M06 A3027 RMK A01 T00341060  RH  050%=      5-min Rain = 0
KHA2 111505Z 01022KT 04/M06 A3027 RMK A01 T00361060  RH  050%=      5-min Rain = 0
KHA2 111506Z 01021KT 04/M06 A3027 RMK A01 T00361061  RH  049%=      5-min Rain = 0
KHA2 111507Z 01021KT 03/M06 A3027 RMK A01 T00341061  RH  050%=      5-min Rain = 0
KHA2 111508Z 00020KT 03/M06 A3027 RMK A01 T00331061  RH  050%=      5-min Rain = 0
KHA2 111509Z 36021KT 04/M06 A3028 RMK A01 T00361059  RH  050%=      5-min Rain = 0
KHA2 111510Z 00021KT 04/M06 A3028 RMK A01 T00371060  RH  049%=      5-min Rain = 0
KHA2 111511Z 01020KT 04/M06 A3028 RMK A01 T00371060  RH  049%=      5-min Rain = 0
KHA2 111512Z 01020KT 04/M06 A3028 RMK A01 T00361061  RH  049%=      5-min Rain = 0
KHA2 111513Z 01020KT 04/M06 A3028 RMK A01 T00351061  RH  049%=      5-min Rain = 0
KHA2 111514Z 01017KT 04/M06 A3028 RMK A01 T00361060  RH  049%=      5-min Rain = 0
KHA2 111515Z 00022KT 04/M06 A3028 RMK A01 T00391060  RH  048%=      5-min Rain = 0
KHA2 111516Z 36021KT 04/M06 A3028 RMK A01 T00401062  RH  047%=      5-min Rain = 0
KHA2 111517Z 01019KT 04/M06 A3028 RMK A01 T00401063  RH  047%=      5-min Rain = 0
KHA2 111518Z 01020G25KT 04/M06 A3028 RMK A01 T00401063  RH  047%=      5-min Rain = 0
KHA2 111519Z 02022KT 04/M06 A3028 RMK A01 T00421063  RH  047%=      5-min Rain = 0
KHA2 111520Z 01022KT 04/M06 A3028 RMK A01 T00421062  RH  047%=      5-min Rain = 0
KHA2 111521Z 01023KT 04/M06 A3028 RMK A01 T00411064  RH  046%=      5-min Rain = 0
KHA2 111522Z 01021KT 04/M07 A3028 RMK A01 T00411065  RH  046%=      5-min Rain = 0
KHA2 111523Z 01019KT 04/M07 A3028 RMK A01 T00411066  RH  046%=      5-min Rain = 0
KHA2 111524Z 02023KT 04/M06 A3028 RMK A01 T00431064  RH  046%=      5-min Rain = 0
KHA2 111525Z 02023KT 05/M07 A3028 RMK A01 T00451065  RH  045%=      5-min Rain = 0
KHA2 111526Z 02021KT 05/M07 A3028 RMK A01 T00451066  RH  045%=      5-min Rain = 0
KHA2 111527Z 02022KT 04/M07 A3028 RMK A01 T00441067  RH  044%=      5-min Rain = 0
KHA2 111528Z 02022KT 05/M07 A3028 RMK A01 T00451066  RH  044%=      5-min Rain = 0
KHA2 111529Z 02020KT 05/M07 A3028 RMK A01 T00451066  RH  044%=      5-min Rain = 0
KHA2 111530Z 01019KT 05/M07 A3028 RMK A01 T00451065  RH  045%=      5-min Rain = 0
KHA2 111531Z 01021G26KT 05/M07 A3028 RMK A01 T00461067  RH  044%=      5-min Rain = 0
KHA2 111532Z 02020KT 05/M07 A3028 RMK A01 T00451068  RH  044%=      5-min Rain = 0
KHA2 111533Z 01018KT 04/M07 A3029 RMK A01 T00441067  RH  044%=      5-min Rain = 0
KHA2 111534Z 02020KT 05/M07 A3029 RMK A01 T00461065  RH  045%=      5-min Rain = 0
KHA2 111535Z 01018KT 05/M07 A3029 RMK A01 T00451067  RH  044%=      5-min Rain = 0
KHA2 111536Z 01020KT 05/M07 A3029 RMK A01 T00471066  RH  044%=      5-min Rain = 0
KHA2 111537Z 01019KT 05/M07 A3029 RMK A01 T00471067  RH  043%=      5-min Rain = 0
KHA2 111538Z 00021G26KT 05/M07 A3029 RMK A01 T00511066  RH  042%=      5-min Rain = 0
KHA2 111539Z 01021KT 05/M07 A3029 RMK A01 T00521070  RH  041%=      5-min Rain = 0
KHA2 111540Z 01022KT 05/M07 A3029 RMK A01 T00531071  RH  040%=      5-min Rain = 0
KHA2 111541Z 01022KT 05/M07 A3029 RMK A01 T00521074  RH  040%=      5-min Rain = 0
KHA2 111542Z 00024KT 05/M08 A3029 RMK A01 T00501075  RH  040%=      5-min Rain = 0
KHA2 111543Z 00021KT 05/M08 A3029 RMK A01 T00501075  RH  040%=      5-min Rain = 0
KHA2 111544Z 01023KT 05/M08 A3029 RMK A01 T00511075  RH  040%=      5-min Rain = 0
KHA2 111545Z 01021KT 05/M08 A3029 RMK A01 T00501078  RH  039%=      5-min Rain = 0
KHA2 111546Z 01021G26KT 05/M08 A3029 RMK A01 T00491078  RH  039%=      5-min Rain = 0
KHA2 111547Z 01022KT 05/M08 A3029 RMK A01 T00511079  RH  039%=      5-min Rain = 0
KHA2 111548Z 01021KT 05/M08 A3029 RMK A01 T00511080  RH  038%=      5-min Rain = 0
KHA2 111549Z 02021KT 05/M08 A3029 RMK A01 T00501079  RH  038%=      5-min Rain = 0
KHA2 111550Z 02022KT 05/M08 A3029 RMK A01 T00501079  RH  039%=      5-min Rain = 0
KHA2 111551Z 02020KT 05/M08 A3029 RMK A01 T00491077  RH  040%=      5-min Rain = 0
KHA2 111552Z 01019KT 05/M07 A303 RMK A01 T00491074  RH  040%=      5-min Rain = 0
KHA2 111553Z 01022KT 05/M07 A3029 RMK A01 T00521073  RH  040%=      5-min Rain = 0
KHA2 111554Z 01022KT 05/M08 A3029 RMK A01 T00521077  RH  039%=      5-min Rain = 0
KHA2 111555Z 01022KT 05/M08 A3029 RMK A01 T00501080  RH  038%=      5-min Rain = 0
KHA2 111556Z 00021KT 05/M08 A303 RMK A01 T00511081  RH  038%=      5-min Rain = 0
KHA2 111557Z 01018KT 05/M08 A303 RMK A01 T00521081  RH  038%=      5-min Rain = 0
KHA2 111558Z 02020G25KT 05/M08 A303 RMK A01 T00521078  RH  038%=      5-min Rain = 0
KHA2 111559Z 02020KT 05/M08 A303 RMK A01 T00521079  RH  038%=      5-min Rain = 0
KHA2 111600Z 01021KT 05/M08 A303 RMK A01 T00531079  RH  038%=      5-min Rain = 0
KHA2 111601Z 01021KT 05/M08 A303 RMK A01 T00531080  RH  038%=      5-min Rain = 0
KHA2 111602Z 01020KT 05/M08 A303 RMK A01 T00531082  RH  037%=      5-min Rain = 0
KHA2 111603Z 01020KT 05/M08 A303 RMK A01 T00531083  RH  037%=      5-min Rain = 0
KHA2 111604Z 01020KT 05/M09 A303 RMK A01 T00531085  RH  036%=      5-min Rain = 0
KHA2 111605Z 01022KT 05/M09 A303 RMK A01 T00541086  RH  036%=      5-min Rain = 0
KHA2 111606Z 01022KT 06/M09 A303 RMK A01 T00551085  RH  036%=      5-min Rain = 0
KHA2 111607Z 02023KT 06/M09 A303 RMK A01 T00561085  RH  035%=      5-min Rain = 0
KHA2 111608Z 01021KT 06/M08 A303 RMK A01 T00551084  RH  036%=      5-min Rain = 0
KHA2 111609Z 01022KT 05/M09 A303 RMK A01 T00541085  RH  036%=      5-min Rain = 0
KHA2 111610Z 02022KT 05/M08 A303 RMK A01 T00541082  RH  037%=      5-min Rain = 0
KHA2 111611Z 01021KT 05/M08 A303 RMK A01 T00541081  RH  037%=      5-min Rain = 0
KHA2 111612Z 00022KT 06/M08 A303 RMK A01 T00571079  RH  037%=      5-min Rain = 0
KHA2 111613Z 01022KT 06/M08 A303 RMK A01 T00581079  RH  036%=      5-min Rain = 0
KHA2 111614Z 00021KT 06/M08 A3031 RMK A01 T00591079  RH  037%=      5-min Rain = 0
KHA2 111615Z 01019KT 06/M08 A3031 RMK A01 T00581078  RH  037%=      5-min Rain = 0
KHA2 111616Z 00022KT 06/M08 A3031 RMK A01 T00611075  RH  037%=      5-min Rain = 0
KHA2 111617Z 00020KT 07/M08 A3031 RMK A01 T00651075  RH  036%=      5-min Rain = 0
KHA2 111618Z 00019KT 07/M08 A3031 RMK A01 T00661076  RH  035%=      5-min Rain = 0
KHA2 111619Z 00020KT 07/M07 A3031 RMK A01 T00691073  RH  036%=      5-min Rain = 0
KHA2 111620Z 01022KT 07/M07 A3031 RMK A01 T00711074  RH  035%=      5-min Rain = 0
KHA2 111621Z 01020KT 07/M08 A3031 RMK A01 T00701076  RH  034%=      5-min Rain = 0
KHA2 111622Z 01019G24KT 07/M08 A3031 RMK A01 T00691076  RH  035%=      5-min Rain = 0
KHA2 111623Z 36018G23KT 07/M07 A3031 RMK A01 T00701072  RH  035%=      5-min Rain = 0
KHA2 111624Z 00022KT 08/M07 A3031 RMK A01 T00751070  RH  035%=      5-min Rain = 0
KHA2 111625Z 00020KT 08/M07 A3031 RMK A01 T00751073  RH  034%=      5-min Rain = 0
KHA2 111626Z 00021KT 07/M07 A3031 RMK A01 T00731073  RH  035%=      5-min Rain = 0
KHA2 111627Z 01021KT 07/M08 A3031 RMK A01 T00721075  RH  034%=      5-min Rain = 0
KHA2 111628Z 01018KT 07/M07 A3031 RMK A01 T00701074  RH  035%=      5-min Rain = 0
KHA2 111629Z 01019G25KT 07/M07 A3031 RMK A01 T00701073  RH  035%=      5-min Rain = 0
KHA2 111630Z 01023KT 07/M08 A3031 RMK A01 T00691075  RH  035%=      5-min Rain = 0
KHA2 111631Z 01022KT 07/M08 A3031 RMK A01 T00671077  RH  035%=      5-min Rain = 0
KHA2 111632Z 01020KT 06/M08 A3031 RMK A01 T00631081  RH  035%=      5-min Rain = 0
KHA2 111633Z 02022KT 06/M08 A3031 RMK A01 T00611080  RH  036%=      5-min Rain = 0
KHA2 111634Z 02019KT 06/M08 A3031 RMK A01 T00591079  RH  036%=      5-min Rain = 0
KHA2 111635Z 01019KT 06/M08 A3031 RMK A01 T00591078  RH  037%=      5-min Rain = 0
KHA2 111636Z 01018KT 06/M08 A3031 RMK A01 T00591079  RH  036%=      5-min Rain = 0
KHA2 111637Z 01016KT 06/M08 A3031 RMK A01 T00591077  RH  037%=      5-min Rain = 0
KHA2 111638Z 02018KT 06/M08 A3031 RMK A01 T00621075  RH  037%=      5-min Rain = 0
KHA2 111639Z 01019KT 06/M08 A3031 RMK A01 T00621076  RH  036%=      5-min Rain = 0
KHA2 111640Z 01021KT 06/M08 A3031 RMK A01 T00631079  RH  035%=      5-min Rain = 0
KHA2 111641Z 01022KT 06/M08 A3031 RMK A01 T00631081  RH  035%=      5-min Rain = 0
KHA2 111642Z 02021KT 06/M08 A3031 RMK A01 T00631081  RH  035%=      5-min Rain = 0
KHA2 111643Z 02019KT 06/M08 A3031 RMK A01 T00641079  RH  035%=      5-min Rain = 0
KHA2 111644Z 01020KT 07/M08 A3031 RMK A01 T00661078  RH  035%=      5-min Rain = 0
KHA2 111645Z 02015KT 07/M08 A3031 RMK A01 T00681077  RH  035%=      5-min Rain = 0
KHA2 111646Z 02017KT 07/M08 A3031 RMK A01 T00711075  RH  035%=      5-min Rain = 0
KHA2 111647Z 02018G23KT 07/M08 A3031 RMK A01 T00681079  RH  034%=      5-min Rain = 0
KHA2 111648Z 01016KT 07/M08 A3031 RMK A01 T00691076  RH  035%=      5-min Rain = 0
KHA2 111649Z 02016KT 07/M08 A3031 RMK A01 T00741076  RH  034%=      5-min Rain = 0
KHA2 111650Z 03016G21KT 07/M08 A3031 RMK A01 T00711078  RH  034%=      5-min Rain = 0
KHA2 111651Z 01020KT 07/M08 A3031 RMK A01 T00681079  RH  034%=      5-min Rain = 0
KHA2 111652Z 01019KT 07/M08 A3031 RMK A01 T00651082  RH  034%=      5-min Rain = 0
KHA2 111653Z 01019KT 07/M08 A3031 RMK A01 T00651081  RH  034%=      5-min Rain = 0
KHA2 111654Z 00021KT 07/M08 A3031 RMK A01 T00661081  RH  034%=      5-min Rain = 0
KHA2 111655Z 01017KT 07/M08 A3031 RMK A01 T00671082  RH  034%=      5-min Rain = 0
KHA2 111656Z 02018KT 07/M08 A3031 RMK A01 T00681080  RH  034%=      5-min Rain = 0
KHA2 111657Z 02017KT 07/M08 A3031 RMK A01 T00681079  RH  034%=      5-min Rain = 0
KHA2 111658Z 02019KT 07/M08 A3031 RMK A01 T00661079  RH  035%=      5-min Rain = 0
KHA2 111659Z 03019KT 07/M08 A3031 RMK A01 T00671081  RH  034%=      5-min Rain = 0
KHA2 111700Z 01015KT 07/M08 A3031 RMK A01 T00661080  RH  034%=      5-min Rain = 0
KHA2 111701Z 01014KT 07/M08 A3031 RMK A01 T00671080  RH  034%=      5-min Rain = 0
KHA2 111702Z 01020KT 07/M08 A3031 RMK A01 T00711080  RH  033%=      5-min Rain = 0
KHA2 111703Z 01018KT 07/M08 A3031 RMK A01 T00731079  RH  033%=      5-min Rain = 0
KHA2 111704Z 00020G25KT 08/M08 A3031 RMK A01 T00771079  RH  032%=      5-min Rain = 0
KHA2 111705Z 01021KT 08/M08 A3031 RMK A01 T00771082  RH  031%=      5-min Rain = 0
KHA2 111706Z 01020KT 07/M09 A3031 RMK A01 T00711086  RH  032%=      5-min Rain = 0
KHA2 111707Z 01018KT 07/M08 A3031 RMK A01 T00681084  RH  033%=      5-min Rain = 0
KHA2 111708Z 36022G27KT 07/M08 A3031 RMK A01 T00691083  RH  033%=      5-min Rain = 0
KHA2 111709Z 36023KT 07/M08 A3031 RMK A01 T00731084  RH  032%=      5-min Rain = 0
KHA2 111710Z 01020KT 07/M09 A3031 RMK A01 T00741085  RH  031%=      5-min Rain = 0
KHA2 111711Z 01019KT 07/M08 A3031 RMK A01 T00731084  RH  032%=      5-min Rain = 0
KHA2 111712Z 00021KT 07/M08 A3031 RMK A01 T00731084  RH  032%=      5-min Rain = 0
KHA2 111713Z 01021KT 07/M09 A3031 RMK A01 T00741085  RH  031%=      5-min Rain = 0
KHA2 111714Z 01024KT 07/M09 A3031 RMK A01 T00741086  RH  031%=      5-min Rain = 0
KHA2 111715Z 02020KT 08/M08 A3031 RMK A01 T00751084  RH  031%=      5-min Rain = 0
KHA2 111716Z 00019KT 08/M08 A3031 RMK A01 T00751084  RH  031%=      5-min Rain = 0
KHA2 111717Z 00018KT 08/M09 A3031 RMK A01 T00751085  RH  031%=      5-min Rain = 0
KHA2 111718Z 00020KT 08/M08 A3031 RMK A01 T00821080  RH  031%=      5-min Rain = 0
KHA2 111719Z 01021KT 09/M08 A3031 RMK A01 T00861083  RH  029%=      5-min Rain = 0
KHA2 111720Z 02019KT 08/M09 A3031 RMK A01 T00831086  RH  029%=      5-min Rain = 0
KHA2 111721Z 01020KT 09/M08 A3031 RMK A01 T00861081  RH  030%=      5-min Rain = 0
KHA2 111722Z 01022KT 09/M09 A3031 RMK A01 T00871086  RH  029%=      5-min Rain = 0
KHA2 111723Z 01016KT 08/M09 A3031 RMK A01 T00811090  RH  029%=      5-min Rain = 0
KHA2 111724Z 01020KT 08/M09 A3031 RMK A01 T00771089  RH  030%=      5-min Rain = 0
KHA2 111725Z 00022G28KT 08/M09 A3031 RMK A01 T00781087  RH  030%=      5-min Rain = 0
KHA2 111726Z 01021KT 08/M09 A3031 RMK A01 T00791088  RH  030%=      5-min Rain = 0
KHA2 111727Z 00024KT 08/M09 A3031 RMK A01 T00801089  RH  029%=      5-min Rain = 0
KHA2 111728Z 00023KT 08/M09 A3031 RMK A01 T00821088  RH  029%=      5-min Rain = 0
KHA2 111729Z 00019KT 08/M09 A3031 RMK A01 T00831087  RH  029%=      5-min Rain = 0
KHA2 111730Z 01019G25KT 08/M09 A3031 RMK A01 T00831088  RH  029%=      5-min Rain = 0
KHA2 111731Z 01021KT 09/M09 A3031 RMK A01 T00851087  RH  029%=      5-min Rain = 0
KHA2 111732Z 01021KT 08/M09 A303 RMK A01 T00831090  RH  028%=      5-min Rain = 0
KHA2 111733Z 01022KT 08/M09 A303 RMK A01 T00821089  RH  029%=      5-min Rain = 0
KHA2 111734Z 01020G25KT 08/M09 A303 RMK A01 T00831088  RH  029%=      5-min Rain = 0
KHA2 111735Z 02018KT 08/M09 A3031 RMK A01 T00841085  RH  029%=      5-min Rain = 0
KHA2 111736Z 01018KT 08/M09 A303 RMK A01 T00841086  RH  029%=      5-min Rain = 0
KHA2 111737Z 35020KT 08/M09 A303 RMK A01 T00831087  RH  029%=      5-min Rain = 0
KHA2 111738Z 01019KT 09/M09 A3031 RMK A01 T00861085  RH  029%=      5-min Rain = 0
KHA2 111739Z 01020KT 09/M09 A303 RMK A01 T00891087  RH  028%=      5-min Rain = 0
KHA2 111740Z 02020KT 09/M09 A303 RMK A01 T00881087  RH  028%=      5-min Rain = 0
KHA2 111741Z 01021KT 09/M09 A303 RMK A01 T00871087  RH  028%=      5-min Rain = 0
KHA2 111742Z 00020KT 09/M09 A303 RMK A01 T00881087  RH  028%=      5-min Rain = 0
KHA2 111743Z 36019G24KT 09/M09 A303 RMK A01 T00921086  RH  027%=      5-min Rain = 0
KHA2 111744Z 02019KT 09/M09 A303 RMK A01 T00911087  RH  027%=      5-min Rain = 0
KHA2 111745Z 02020KT 09/M09 A303 RMK A01 T00891088  RH  028%=      5-min Rain = 0
KHA2 111746Z 03017KT 08/M09 A303 RMK A01 T00821092  RH  028%=      5-min Rain = 0
KHA2 111747Z 02019G25KT 08/M09 A303 RMK A01 T00791089  RH  029%=      5-min Rain = 0
KHA2 111748Z 03023KT 08/M09 A303 RMK A01 T00811088  RH  029%=      5-min Rain = 0
KHA2 111749Z 03024KT 08/M09 A303 RMK A01 T00831087  RH  029%=      5-min Rain = 0
KHA2 111750Z 01018KT 08/M09 A303 RMK A01 T00831089  RH  029%=      5-min Rain = 0
KHA2 111751Z 02022KT 08/M09 A303 RMK A01 T00831090  RH  028%=      5-min Rain = 0
KHA2 111752Z 01021KT 08/M09 A303 RMK A01 T00801093  RH  028%=      5-min Rain = 0
KHA2 111753Z 01018KT 08/M09 A303 RMK A01 T00801093  RH  028%=      5-min Rain = 0
KHA2 111754Z 00021G26KT 08/M09 A303 RMK A01 T00811093  RH  028%=      5-min Rain = 0
KHA2 111755Z 00019KT 08/M09 A303 RMK A01 T00841091  RH  028%=      5-min Rain = 0
KHA2 111756Z 02018G23KT 09/M09 A303 RMK A01 T00861090  RH  028%=      5-min Rain = 0
KHA2 111757Z 01020KT 09/M09 A303 RMK A01 T00881087  RH  028%=      5-min Rain = 0
KHA2 111758Z 02018G23KT 09/M09 A303 RMK A01 T00871090  RH  028%=      5-min Rain = 0
KHA2 111759Z 01022KT 09/M09 A303 RMK A01 T00861089  RH  028%=      5-min Rain = 0
KHA2 111800Z 01017KT 09/M09 A303 RMK A01 T00861091  RH  028%=      5-min Rain = 0
KHA2 111801Z 01019KT 09/M09 A303 RMK A01 T00881091  RH  027%=      5-min Rain = 0
KHA2 111802Z 01018KT 09/M09 A303 RMK A01 T00881092  RH  027%=      5-min Rain = 0
KHA2 111803Z 01017KT 09/M09 A303 RMK A01 T00861094  RH  027%=      5-min Rain = 0
KHA2 111804Z 01017G23KT 09/M09 A3031 RMK A01 T00861092  RH  027%=      5-min Rain = 0
KHA2 111805Z 36019G24KT 09/M09 A3031 RMK A01 T00871092  RH  027%=      5-min Rain = 0
KHA2 111806Z 01020KT 09/M10 A303 RMK A01 T00851095  RH  027%=      5-min Rain = 0
KHA2 111807Z 01017KT 08/M10 A3031 RMK A01 T00821096  RH  027%=      5-min Rain = 0
KHA2 111808Z 01018G25KT 08/M09 A3031 RMK A01 T00821094  RH  028%=      5-min Rain = 0
KHA2 111809Z 01020KT 08/M10 A3031 RMK A01 T00831095  RH  027%=      5-min Rain = 0
KHA2 111810Z 01018G23KT 08/M10 A3031 RMK A01 T00831095  RH  027%=      5-min Rain = 0
KHA2 111811Z 01020KT 08/M10 A3031 RMK A01 T00831095  RH  027%=      5-min Rain = 0
KHA2 111812Z 01021KT 09/M09 A3031 RMK A01 T00861094  RH  027%=      5-min Rain = 0
KHA2 111813Z 02019KT 09/M09 A3031 RMK A01 T00881092  RH  027%=      5-min Rain = 0
KHA2 111814Z 02017KT 09/M09 A3031 RMK A01 T00891090  RH  027%=      5-min Rain = 0
KHA2 111815Z 03020KT 09/M09 A303 RMK A01 T00901090  RH  027%=      5-min Rain = 0
KHA2 111816Z 03019KT 09/M09 A303 RMK A01 T00891093  RH  027%=      5-min Rain = 0
KHA2 111817Z 02017G23KT 09/M09 A303 RMK A01 T00891091  RH  027%=      5-min Rain = 0
KHA2 111818Z 01020G25KT 09/M09 A303 RMK A01 T00941089  RH  026%=      5-min Rain = 0
KHA2 111819Z 01019KT 10/M09 A303 RMK A01 T00961093  RH  025%=      5-min Rain = 0
KHA2 111820Z 02020KT 09/M10 A303 RMK A01 T00931096  RH  025%=      5-min Rain = 0
KHA2 111821Z 03019KT 09/M10 A303 RMK A01 T00921095  RH  026%=      5-min Rain = 0
KHA2 111822Z 02017KT 09/M10 A303 RMK A01 T00891096  RH  026%=      5-min Rain = 0
KHA2 111823Z 02024KT 09/M10 A303 RMK A01 T00901095  RH  026%=      5-min Rain = 0
KHA2 111824Z 01023KT 09/M10 A303 RMK A01 T00901096  RH  026%=      5-min Rain = 0
KHA2 111825Z 02019KT 09/M09 A303 RMK A01 T00931094  RH  026%=      5-min Rain = 0
KHA2 111826Z 02024KT 10/M09 A303 RMK A01 T00971094  RH  025%=      5-min Rain = 0
KHA2 111827Z 02022KT 10/M10 A303 RMK A01 T00951099  RH  024%=      5-min Rain = 0
KHA2 111828Z 00021G26KT 09/M10 A303 RMK A01 T00931099  RH  025%=      5-min Rain = 0
KHA2 111829Z 01019KT 10/M10 A303 RMK A01 T00961099  RH  024%=      5-min Rain = 0
KHA2 111830Z 01019KT 10/M10 A303 RMK A01 T00971099  RH  024%=      5-min Rain = 0
KHA2 111831Z 02020G27KT 10/M10 A303 RMK A01 T00981099  RH  024%=      5-min Rain = 0
KHA2 111832Z 01020KT 10/M10 A303 RMK A01 T00961099  RH  024%=      5-min Rain = 0
KHA2 111833Z 01021KT 10/M10 A303 RMK A01 T00991097  RH  024%=      5-min Rain = 0
KHA2 111834Z 01019KT 10/M10 A303 RMK A01 T01001099  RH  024%=      5-min Rain = 0
KHA2 111835Z 02018KT 10/M10 A303 RMK A01 T00991100  RH  024%=      5-min Rain = 0
KHA2 111836Z 01019KT 10/M10 A303 RMK A01 T00961100  RH  024%=      5-min Rain = 0
KHA2 111837Z 01022KT 10/M10 A303 RMK A01 T00971099  RH  024%=      5-min Rain = 0
KHA2 111838Z 02022KT 10/M10 A3029 RMK A01 T00981100  RH  024%=      5-min Rain = 0
KHA2 111839Z 03024KT 10/M10 A303 RMK A01 T00981100  RH  024%=      5-min Rain = 0
KHA2 111840Z 03026KT 10/M10 A303 RMK A01 T00951102  RH  024%=      5-min Rain = 0
KHA2 111841Z 02024KT 09/M10 A303 RMK A01 T00941102  RH  024%=      5-min Rain = 0
KHA2 111842Z 02021G26KT 09/M10 A303 RMK A01 T00931102  RH  024%=      5-min Rain = 0
KHA2 111843Z 03021G28KT 10/M10 A303 RMK A01 T00951100  RH  024%=      5-min Rain = 0
KHA2 111844Z 03024KT 10/M10 A303 RMK A01 T00991097  RH  024%=      5-min Rain = 0
KHA2 111845Z 03022G27KT 10/M10 A3029 RMK A01 T00981101  RH  023%=      5-min Rain = 0
KHA2 111846Z 02024KT 10/M10 A3029 RMK A01 T00981100  RH  024%=      5-min Rain = 0
KHA2 111847Z 02022KT 10/M10 A3029 RMK A01 T00961102  RH  024%=      5-min Rain = 0
KHA2 111848Z 02019KT 09/M10 A303 RMK A01 T00941102  RH  024%=      5-min Rain = 0
KHA2 111849Z 01017KT 09/M10 A3029 RMK A01 T00941102  RH  024%=      5-min Rain = 0
KHA2 111850Z 02022G27KT 10/M10 A3029 RMK A01 T00971099  RH  024%=      5-min Rain = 0
KHA2 111851Z 02021KT 10/M10 A3029 RMK A01 T00971102  RH  024%=      5-min Rain = 0
KHA2 111852Z 00017KT 10/M10 A3029 RMK A01 T00951103  RH  024%=      5-min Rain = 0
KHA2 111853Z 01017KT 10/M10 A3029 RMK A01 T00981101  RH  023%=      5-min Rain = 0
KHA2 111854Z 02019G24KT 10/M10 A3029 RMK A01 T01041100  RH  023%=      5-min Rain = 0
KHA2 111855Z 02021KT 10/M10 A3029 RMK A01 T01041100  RH  023%=      5-min Rain = 0
KHA2 111856Z 02019KT 10/M10 A3029 RMK A01 T01001102  RH  023%=      5-min Rain = 0
KHA2 111857Z 01017KT 10/M11 A3029 RMK A01 T00981105  RH  023%=      5-min Rain = 0
KHA2 111858Z 01019KT 10/M10 A3029 RMK A01 T01011102  RH  023%=      5-min Rain = 0
KHA2 111859Z 01020KT 11/M10 A3029 RMK A01 T01051101  RH  022%=      5-min Rain = 0
KHA2 111900Z 02022KT 11/M10 A3029 RMK A01 T01051102  RH  022%=      5-min Rain = 0
KHA2 111901Z 02020KT 11/M10 A3029 RMK A01 T01051098  RH  023%=      5-min Rain = 0
KHA2 111902Z 03019KT 11/M10 A3029 RMK A01 T01081095  RH  023%=      5-min Rain = 0
KHA2 111903Z 02019G25KT 11/M10 A3029 RMK A01 T01061098  RH  023%=      5-min Rain = 0
KHA2 111904Z 01022KT 11/M10 A3029 RMK A01 T01061102  RH  022%=      5-min Rain = 0
KHA2 111905Z 01022KT 10/M11 A3029 RMK A01 T01031108  RH  022%=      5-min Rain = 0
KHA2 111906Z 01019KT 10/M11 A3029 RMK A01 T00981109  RH  022%=      5-min Rain = 0
KHA2 111907Z 02024KT 10/M11 A3029 RMK A01 T00991106  RH  023%=      5-min Rain = 0
KHA2 111908Z 00020KT 10/M11 A303 RMK A01 T00971106  RH  023%=      5-min Rain = 0
KHA2 111909Z 01016KT 10/M11 A3029 RMK A01 T00971106  RH  023%=      5-min Rain = 0
KHA2 111910Z 01018KT 10/M10 A3029 RMK A01 T00991104  RH  023%=      5-min Rain = 0
KHA2 111911Z 01018KT 10/M10 A3029 RMK A01 T01001104  RH  023%=      5-min Rain = 0
KHA2 111912Z 01020KT 10/M10 A3029 RMK A01 T01011104  RH  023%=      5-min Rain = 0
KHA2 111913Z 02020KT 10/M10 A3029 RMK A01 T01011103  RH  023%=      5-min Rain = 0
KHA2 111914Z 01018KT 10/M10 A3029 RMK A01 T01011102  RH  023%=      5-min Rain = 0
KHA2 111915Z 01017G23KT 10/M11 A3029 RMK A01 T00991107  RH  022%=      5-min Rain = 0
KHA2 111916Z 01020G25KT 10/M11 A3028 RMK A01 T00991108  RH  022%=      5-min Rain = 0
KHA2 111917Z 02023KT 10/M10 A3029 RMK A01 T01011104  RH  022%=      5-min Rain = 0
KHA2 111918Z 02020KT 10/M11 A3029 RMK A01 T01011105  RH  022%=      5-min Rain = 0
KHA2 111919Z 01019G25KT 10/M11 A3029 RMK A01 T01011107  RH  022%=      5-min Rain = 0
KHA2 111920Z 02020KT 10/M11 A3029 RMK A01 T01001108  RH  022%=      5-min Rain = 0
KHA2 111921Z 03022KT 10/M11 A3029 RMK A01 T00991106  RH  022%=      5-min Rain = 0
KHA2 111922Z 03020KT 10/M11 A3029 RMK A01 T00971105  RH  023%=      5-min Rain = 0
KHA2 111923Z 02019KT 10/M11 A3029 RMK A01 T00971105  RH  023%=      5-min Rain = 0
KHA2 111924Z 01016KT 10/M11 A3029 RMK A01 T00961107  RH  023%=      5-min Rain = 0
KHA2 111925Z 35015KT 10/M11 A3029 RMK A01 T00981107  RH  022%=      5-min Rain = 0
KHA2 111926Z 01014KT 10/M11 A3029 RMK A01 T01001106  RH  022%=      5-min Rain = 0
KHA2 111927Z 02017G23KT 10/M10 A3029 RMK A01 T01011103  RH  023%=      5-min Rain = 0
KHA2 111928Z 01019KT 10/M10 A3029 RMK A01 T01041104  RH  022%=      5-min Rain = 0
KHA2 111929Z 01016KT 11/M10 A3029 RMK A01 T01101101  RH  022%=      5-min Rain = 0
KHA2 111930Z 01018G24KT 12/M10 A3029 RMK A01 T01151101  RH  021%=      5-min Rain = 0
KHA2 111931Z 02019KT 11/M11 A3029 RMK A01 T01121106  RH  021%=      5-min Rain = 0
KHA2 111932Z 01017KT 11/M11 A3029 RMK A01 T01061108  RH  021%=      5-min Rain = 0
KHA2 111933Z 01016KT 10/M11 A3029 RMK A01 T01041107  RH  021%=      5-min Rain = 0
KHA2 111934Z 02017KT 11/M10 A3029 RMK A01 T01091102  RH  022%=      5-min Rain = 0
KHA2 111935Z 02019G24KT 11/M10 A3029 RMK A01 T01101104  RH  021%=      5-min Rain = 0
KHA2 111936Z 02019KT 11/M10 A3029 RMK A01 T01081104  RH  021%=      5-min Rain = 0
KHA2 111937Z 02015KT 11/M11 A3029 RMK A01 T01051106  RH  022%=      5-min Rain = 0
KHA2 111938Z 01018KT 10/M10 A3029 RMK A01 T01041104  RH  022%=      5-min Rain = 0
KHA2 111939Z 01019KT 10/M11 A3029 RMK A01 T01041107  RH  022%=      5-min Rain = 0
KHA2 111940Z 00017KT 11/M11 A3029 RMK A01 T01051107  RH  021%=      5-min Rain = 0
KHA2 111941Z 01018KT 11/M11 A3029 RMK A01 T01091106  RH  021%=      5-min Rain = 0
KHA2 111942Z 01015KT 11/M11 A3029 RMK A01 T01071109  RH  021%=      5-min Rain = 0
KHA2 111943Z 01013KT 10/M11 A3029 RMK A01 T01031110  RH  021%=      5-min Rain = 0
KHA2 111944Z 02013KT 10/M11 A3029 RMK A01 T01011109  RH  022%=      5-min Rain = 0
KHA2 111945Z 36015G24KT 10/M11 A3028 RMK A01 T01031105  RH  022%=      5-min Rain = 0
KHA2 111946Z 36019KT 11/M11 A3028 RMK A01 T01081106  RH  021%=      5-min Rain = 0
KHA2 111947Z 00019KT 11/M11 A3028 RMK A01 T01081109  RH  021%=      5-min Rain = 0
KHA2 111948Z 36019KT 11/M11 A3028 RMK A01 T01071110  RH  021%=      5-min Rain = 0
KHA2 111949Z 35018KT 11/M11 A3028 RMK A01 T01051110  RH  021%=      5-min Rain = 0
KHA2 111950Z 01014KT 11/M11 A3028 RMK A01 T01051110  RH  021%=      5-min Rain = 0
KHA2 111951Z 00013KT 11/M11 A3028 RMK A01 T01071107  RH  021%=      5-min Rain = 0
KHA2 111952Z 01017KT 11/M11 A3028 RMK A01 T01081107  RH  021%=      5-min Rain = 0
KHA2 111953Z 02015KT 11/M11 A3028 RMK A01 T01051108  RH  021%=      5-min Rain = 0
KHA2 111954Z 01016G21KT 10/M11 A3028 RMK A01 T01041107  RH  022%=      5-min Rain = 0
KHA2 111955Z 01014KT 10/M11 A3028 RMK A01 T01021109  RH  021%=      5-min Rain = 0
KHA2 111956Z 01019KT 10/M11 A3028 RMK A01 T01041109  RH  021%=      5-min Rain = 0
KHA2 111957Z 02017KT 11/M11 A3028 RMK A01 T01061107  RH  021%=      5-min Rain = 0
KHA2 111958Z 01017KT 11/M11 A3028 RMK A01 T01081107  RH  021%=      5-min Rain = 0
KHA2 111959Z 00019KT 11/M11 A3028 RMK A01 T01081109  RH  021%=      5-min Rain = 0
KHA2 112000Z 00017G23KT 11/M11 A3028 RMK A01 T01081112  RH  020%=      5-min Rain = 0
KHA2 112001Z 02018G23KT 11/M11 A3028 RMK A01 T01101112  RH  020%=      5-min Rain = 0
KHA2 112002Z 04016KT 11/M11 A3028 RMK A01 T01071110  RH  021%=      5-min Rain = 0
KHA2 112003Z 03013KT 11/M11 A3028 RMK A01 T01081106  RH  021%=      5-min Rain = 0
KHA2 112004Z 02013G18KT 11/M11 A3028 RMK A01 T01081107  RH  021%=      5-min Rain = 0
KHA2 112005Z 03018KT 11/M11 A3028 RMK A01 T01091107  RH  021%=      5-min Rain = 0
KHA2 112006Z 01016KT 11/M11 A3028 RMK A01 T01101108  RH  021%=      5-min Rain = 0
KHA2 112007Z 36017KT 11/M11 A3028 RMK A01 T01131108  RH  020%=      5-min Rain = 0
KHA2 112008Z 02020KT 11/M11 A3028 RMK A01 T01141110  RH  020%=      5-min Rain = 0
KHA2 112009Z 36019KT 11/M11 A3028 RMK A01 T01111112  RH  020%=      5-min Rain = 0
KHA2 112010Z 01019KT 11/M11 A3029 RMK A01 T01071114  RH  020%=      5-min Rain = 0
KHA2 112011Z 01017KT 11/M11 A3029 RMK A01 T01061113  RH  020%=      5-min Rain = 0
KHA2 112012Z 36016KT 11/M11 A3029 RMK A01 T01061113  RH  020%=      5-min Rain = 0
KHA2 112013Z 00016G21KT 11/M11 A3028 RMK A01 T01081113  RH  020%=      5-min Rain = 0
KHA2 112014Z 01017KT 11/M11 A3028 RMK A01 T01101111  RH  020%=      5-min Rain = 0
KHA2 112015Z 01019KT 11/M11 A3029 RMK A01 T01101113  RH  020%=      5-min Rain = 0
KHA2 112016Z 00018KT 11/M12 A3028 RMK A01 T01071116  RH  020%=      5-min Rain = 0
KHA2 112017Z 01018KT 11/M12 A3028 RMK A01 T01071115  RH  020%=      5-min Rain = 0
KHA2 112018Z 02019KT 11/M11 A3028 RMK A01 T01081112  RH  020%=      5-min Rain = 0
KHA2 112019Z 03017KT 11/M11 A3028 RMK A01 T01061111  RH  021%=      5-min Rain = 0
KHA2 112020Z 01017KT 11/M11 A3028 RMK A01 T01061109  RH  021%=      5-min Rain = 0
KHA2 112021Z 01015KT 11/M11 A3028 RMK A01 T01071111  RH  020%=      5-min Rain = 0
KHA2 112022Z 01012KT 11/M11 A3028 RMK A01 T01091111  RH  020%=      5-min Rain = 0
KHA2 112023Z 01015KT 11/M11 A3028 RMK A01 T01091110  RH  020%=      5-min Rain = 0
KHA2 112024Z 00018KT 11/M11 A3028 RMK A01 T01111110  RH  020%=      5-min Rain = 0
KHA2 112025Z 35017KT 11/M12 A3028 RMK A01 T01121115  RH  019%=      5-min Rain = 0
KHA2 112026Z 01016KT 11/M11 A3028 RMK A01 T01121114  RH  019%=      5-min Rain = 0
KHA2 112027Z 36016KT 11/M11 A3028 RMK A01 T01131113  RH  019%=      5-min Rain = 0
KHA2 112028Z 35017KT 11/M11 A3028 RMK A01 T01141114  RH  019%=      5-min Rain = 0
KHA2 112029Z 36015KT 11/M12 A3028 RMK A01 T01111116  RH  019%=      5-min Rain = 0
KHA2 112030Z 36018KT 11/M11 A3028 RMK A01 T01121113  RH  019%=      5-min Rain = 0
KHA2 112031Z 00014KT 11/M12 A3028 RMK A01 T01111116  RH  019%=      5-min Rain = 0
KHA2 112032Z 01012KT 11/M12 A3028 RMK A01 T01071116  RH  020%=      5-min Rain = 0
KHA2 112033Z 35015KT 11/M11 A3028 RMK A01 T01071113  RH  020%=      5-min Rain = 0
KHA2 112034Z 35014KT 11/M11 A3028 RMK A01 T01091113  RH  020%=      5-min Rain = 0
KHA2 112035Z 35018G25KT 11/M11 A3028 RMK A01 T01081114  RH  020%=      5-min Rain = 0
KHA2 112036Z 36021KT 11/M11 A3028 RMK A01 T01101113  RH  020%=      5-min Rain = 0
KHA2 112037Z 35021KT 11/M11 A3028 RMK A01 T01091114  RH  020%=      5-min Rain = 0
KHA2 112038Z 00017KT 11/M11 A3028 RMK A01 T01071114  RH  020%=      5-min Rain = 0
KHA2 112039Z 00016KT 11/M11 A3028 RMK A01 T01081113  RH  020%=      5-min Rain = 0
KHA2 112040Z 00015KT 11/M11 A3028 RMK A01 T01111112  RH  020%=      5-min Rain = 0
KHA2 112041Z 35016KT 11/M11 A3028 RMK A01 T01141109  RH  020%=      5-min Rain = 0
KHA2 112042Z 35017KT 11/M11 A3028 RMK A01 T01141110  RH  020%=      5-min Rain = 0
KHA2 112043Z 36018KT 11/M11 A3028 RMK A01 T01131110  RH  020%=      5-min Rain = 0
KHA2 112044Z 35016KT 11/M11 A3028 RMK A01 T01121109  RH  020%=      5-min Rain = 0
KHA2 112045Z 35015KT 11/M11 A3028 RMK A01 T01111110  RH  020%=      5-min Rain = 0
KHA2 112046Z 35015KT 11/M11 A3028 RMK A01 T01081110  RH  020%=      5-min Rain = 0
KHA2 112047Z 35012KT 11/M11 A3028 RMK A01 T01101107  RH  021%=      5-min Rain = 0
KHA2 112048Z 35012G17KT 11/M11 A3028 RMK A01 T01101108  RH  021%=      5-min Rain = 0
KHA2 112049Z 00017KT 11/M11 A3028 RMK A01 T01091108  RH  021%=      5-min Rain = 0
KHA2 112050Z 01019KT 11/M11 A3028 RMK A01 T01121108  RH  020%=      5-min Rain = 0
KHA2 112051Z 00018KT 12/M11 A3028 RMK A01 T01151109  RH  020%=      5-min Rain = 0
KHA2 112052Z 01014KT 12/M11 A3028 RMK A01 T01151112  RH  019%=      5-min Rain = 0
KHA2 112053Z 02019KT 12/M11 A3028 RMK A01 T01151111  RH  019%=      5-min Rain = 0
KHA2 112054Z 36016KT 11/M11 A3028 RMK A01 T01131110  RH  020%=      5-min Rain = 0
KHA2 112055Z 36015KT 11/M11 A3028 RMK A01 T01141109  RH  020%=      5-min Rain = 0
KHA2 112056Z 00016KT 12/M10 A3028 RMK A01 T01181104  RH  020%=      5-min Rain = 0
KHA2 112057Z 35015KT 12/M11 A3028 RMK A01 T01211105  RH  019%=      5-min Rain = 0
KHA2 112058Z 34018KT 12/M11 A3028 RMK A01 T01221105  RH  019%=      5-min Rain = 0
KHA2 112059Z 36015KT 12/M11 A3028 RMK A01 T01171108  RH  020%=      5-min Rain = 0
KHA2 112100Z 36017G22KT 11/M11 A3028 RMK A01 T01131107  RH  020%=      5-min Rain = 0
KHA2 112101Z 36015KT 11/M11 A3028 RMK A01 T01141106  RH  020%=      5-min Rain = 0
KHA2 112102Z 36016KT 11/M11 A3028 RMK A01 T01101108  RH  020%=      5-min Rain = 0
KHA2 112103Z 00014KT 11/M11 A3027 RMK A01 T01091109  RH  021%=      5-min Rain = 0
KHA2 112104Z 35011KT 11/M11 A3027 RMK A01 T01081109  RH  021%=      5-min Rain = 0
KHA2 112105Z 34011KT 11/M11 A3027 RMK A01 T01071108  RH  021%=      5-min Rain = 0
KHA2 112106Z 35014G19KT 11/M11 A3027 RMK A01 T01111106  RH  021%=      5-min Rain = 0
KHA2 112107Z 00018G25KT 11/M11 A3027 RMK A01 T01141107  RH  020%=      5-min Rain = 0
KHA2 112108Z 00020KT 11/M11 A3027 RMK A01 T01131112  RH  020%=      5-min Rain = 0
KHA2 112109Z 00018KT 11/M12 A3027 RMK A01 T01101116  RH  019%=      5-min Rain = 0
KHA2 112110Z 00017KT 11/M12 A3027 RMK A01 T01091116  RH  019%=      5-min Rain = 0
KHA2 112111Z 01018KT 11/M12 A3027 RMK A01 T01081115  RH  020%=      5-min Rain = 0
KHA2 112112Z 01016KT 11/M11 A3027 RMK A01 T01071112  RH  020%=      5-min Rain = 0
KHA2 112113Z 01014KT 11/M11 A3027 RMK A01 T01071109  RH  021%=      5-min Rain = 0
KHA2 112114Z 01015KT 11/M11 A3027 RMK A01 T01071109  RH  021%=      5-min Rain = 0
KHA2 112115Z 36017KT 11/M11 A3027 RMK A01 T01071109  RH  021%=      5-min Rain = 0
KHA2 112116Z 35017KT 11/M11 A3027 RMK A01 T01081110  RH  020%=      5-min Rain = 0
KHA2 112117Z 36017KT 11/M11 A3027 RMK A01 T01091110  RH  020%=      5-min Rain = 0
KHA2 112118Z 00015KT 11/M11 A3027 RMK A01 T01071110  RH  021%=      5-min Rain = 0
KHA2 112119Z 01016KT 11/M11 A3027 RMK A01 T01051109  RH  021%=      5-min Rain = 0
KHA2 112120Z 35011KT 11/M11 A3027 RMK A01 T01051108  RH  021%=      5-min Rain = 0
KHA2 112121Z 35013KT 11/M11 A3027 RMK A01 T01071108  RH  021%=      5-min Rain = 0
KHA2 112122Z 35017KT 11/M11 A3027 RMK A01 T01071107  RH  021%=      5-min Rain = 0
KHA2 112123Z 35015KT 11/M11 A3027 RMK A01 T01081106  RH  021%=      5-min Rain = 0
KHA2 112124Z 35015KT 11/M11 A3027 RMK A01 T01071107  RH  021%=      5-min Rain = 0
KHA2 112125Z 34014KT 11/M11 A3027 RMK A01 T01071106  RH  021%=      5-min Rain = 0
KHA2 112126Z 34016KT 11/M11 A3027 RMK A01 T01081106  RH  021%=      5-min Rain = 0
KHA2 112127Z 01017KT 11/M11 A3027 RMK A01 T01091105  RH  021%=      5-min Rain = 0
KHA2 112128Z 01018KT 11/M11 A3027 RMK A01 T01101105  RH  021%=      5-min Rain = 0
KHA2 112129Z 01016KT 11/M11 A3027 RMK A01 T01081106  RH  021%=      5-min Rain = 0
KHA2 112130Z 01016KT 11/M11 A3027 RMK A01 T01091105  RH  021%=      5-min Rain = 0
KHA2 112131Z 36014KT 11/M10 A3027 RMK A01 T01101104  RH  021%=      5-min Rain = 0
KHA2 112132Z 02014KT 11/M10 A3027 RMK A01 T01101101  RH  022%=      5-min Rain = 0
KHA2 112133Z 00013KT 11/M10 A3027 RMK A01 T01121098  RH  022%=      5-min Rain = 0
KHA2 112134Z 36014KT 12/M10 A3027 RMK A01 T01161100  RH  021%=      5-min Rain = 0
KHA2 112135Z 35011KT 11/M10 A3027 RMK A01 T01121104  RH  021%=      5-min Rain = 0
KHA2 112136Z 35011KT 11/M10 A3027 RMK A01 T01111103  RH  021%=      5-min Rain = 0
KHA2 112137Z 36012KT 11/M10 A3027 RMK A01 T01121102  RH  021%=      5-min Rain = 0
KHA2 112138Z 36016KT 11/M10 A3027 RMK A01 T01141100  RH  021%=      5-min Rain = 0
KHA2 112139Z 35017KT 12/M10 A3026 RMK A01 T01171100  RH  021%=      5-min Rain = 0
KHA2 112140Z 35015KT 12/M10 A3026 RMK A01 T01191102  RH  020%=      5-min Rain = 0
KHA2 112141Z 36016KT 12/M10 A3026 RMK A01 T01191104  RH  020%=      5-min Rain = 0
KHA2 112142Z 00016KT 12/M10 A3026 RMK A01 T01171104  RH  020%=      5-min Rain = 0
KHA2 112143Z 36015KT 12/M10 A3026 RMK A01 T01151103  RH  021%=      5-min Rain = 0
KHA2 112144Z 36015KT 12/M10 A3026 RMK A01 T01151102  RH  021%=      5-min Rain = 0
KHA2 112145Z 00016KT 12/M10 A3026 RMK A01 T01171099  RH  021%=      5-min Rain = 0
KHA2 112146Z 36016KT 12/M10 A3026 RMK A01 T01221099  RH  020%=      5-min Rain = 0
KHA2 112147Z 35015KT 12/M10 A3026 RMK A01 T01231101  RH  020%=      5-min Rain = 0
KHA2 112148Z 36013KT 12/M10 A3026 RMK A01 T01221104  RH  020%=      5-min Rain = 0
KHA2 112149Z 35014KT 12/M10 A3026 RMK A01 T01221102  RH  020%=      5-min Rain = 0
KHA2 112150Z 36015KT 12/M10 A3026 RMK A01 T01221102  RH  020%=      5-min Rain = 0
KHA2 112151Z 01012KT 12/M11 A3026 RMK A01 T01171105  RH  020%=      5-min Rain = 0
KHA2 112152Z 36012KT 11/M10 A3026 RMK A01 T01141103  RH  021%=      5-min Rain = 0
KHA2 112153Z 36012G17KT 11/M10 A3026 RMK A01 T01141103  RH  021%=      5-min Rain = 0
KHA2 112154Z 00016KT 12/M10 A3026 RMK A01 T01171100  RH  021%=      5-min Rain = 0
KHA2 112155Z 35014KT 12/M10 A3026 RMK A01 T01201100  RH  020%=      5-min Rain = 0
KHA2 112156Z 00011KT 12/M10 A3026 RMK A01 T01211101  RH  020%=      5-min Rain = 0
KHA2 112157Z 01013KT 12/M10 A3026 RMK A01 T01211102  RH  020%=      5-min Rain = 0
KHA2 112158Z 02013KT 12/M10 A3026 RMK A01 T01211103  RH  020%=      5-min Rain = 0
KHA2 112159Z 03015KT 12/M10 A3026 RMK A01 T01211103  RH  020%=      5-min Rain = 0
KHA2 112200Z 02018KT 12/M10 A3026 RMK A01 T01201102  RH  020%=      5-min Rain = 0
KHA2 112201Z 02018KT 12/M10 A3026 RMK A01 T01211102  RH  020%=      5-min Rain = 0
KHA2 112202Z 01018KT 12/M10 A3026 RMK A01 T01201104  RH  020%=      5-min Rain = 0
KHA2 112203Z 01018KT 12/M11 A3026 RMK A01 T01201108  RH  019%=      5-min Rain = 0
KHA2 112204Z 01018KT 12/M11 A3026 RMK A01 T01201107  RH  019%=      5-min Rain = 0
KHA2 112205Z 01014KT 12/M11 A3026 RMK A01 T01191108  RH  019%=      5-min Rain = 0
KHA2 112206Z 02014KT 12/M11 A3026 RMK A01 T01201109  RH  019%=      5-min Rain = 0
KHA2 112207Z 02013KT 12/M11 A3026 RMK A01 T01201111  RH  019%=      5-min Rain = 0
KHA2 112208Z 03014KT 12/M11 A3026 RMK A01 T01171113  RH  019%=      5-min Rain = 0
KHA2 112209Z 02014KT 12/M11 A3026 RMK A01 T01171110  RH  019%=      5-min Rain = 0
KHA2 112210Z 01014KT 12/M11 A3026 RMK A01 T01191109  RH  019%=      5-min Rain = 0
KHA2 112211Z 01014KT 12/M12 A3026 RMK A01 T01201115  RH  018%=      5-min Rain = 0
KHA2 112212Z 01013KT 12/M12 A3026 RMK A01 T01201118  RH  018%=      5-min Rain = 0
KHA2 112213Z 02014KT 12/M12 A3026 RMK A01 T01201119  RH  017%=      5-min Rain = 0
KHA2 112214Z 01014KT 12/M12 A3026 RMK A01 T01231116  RH  018%=      5-min Rain = 0
KHA2 112215Z 01017KT 13/M12 A3026 RMK A01 T01251117  RH  017%=      5-min Rain = 0
KHA2 112216Z 01014KT 13/M12 A3026 RMK A01 T01251123  RH  017%=      5-min Rain = 0
KHA2 112217Z 01014G19KT 12/M13 A3026 RMK A01 T01221126  RH  016%=      5-min Rain = 0
KHA2 112218Z 00015G21KT 12/M12 A3026 RMK A01 T01221124  RH  017%=      5-min Rain = 0
KHA2 112219Z 02016KT 13/M13 A3026 RMK A01 T01261128  RH  016%=      5-min Rain = 0
KHA2 112220Z 03015KT 12/M13 A3026 RMK A01 T01241131  RH  016%=      5-min Rain = 0
KHA2 112221Z 03014KT 12/M13 A3026 RMK A01 T01211126  RH  017%=      5-min Rain = 0
KHA2 112222Z 01012KT 12/M12 A3026 RMK A01 T01221123  RH  017%=      5-min Rain = 0
KHA2 112223Z 36016KT 12/M13 A3026 RMK A01 T01231128  RH  016%=      5-min Rain = 0
KHA2 112224Z 01017KT 12/M13 A3026 RMK A01 T01221129  RH  016%=      5-min Rain = 0
KHA2 112225Z 01015KT 12/M13 A3026 RMK A01 T01191130  RH  016%=      5-min Rain = 0
KHA2 112226Z 02013KT 12/M13 A3026 RMK A01 T01161128  RH  017%=      5-min Rain = 0
KHA2 112227Z 02012KT 12/M12 A3026 RMK A01 T01161123  RH  017%=      5-min Rain = 0
KHA2 112228Z 00012KT 12/M13 A3026 RMK A01 T01161129  RH  017%=      5-min Rain = 0
KHA2 112229Z 01015KT 12/M13 A3026 RMK A01 T01161133  RH  016%=      5-min Rain = 0
KHA2 112230Z 01015KT 12/M13 A3026 RMK A01 T01161132  RH  016%=      5-min Rain = 0
KHA2 112231Z 00016KT 12/M13 A3026 RMK A01 T01171134  RH  016%=      5-min Rain = 0
KHA2 112232Z 01017KT 12/M14 A3026 RMK A01 T01171136  RH  016%=      5-min Rain = 0
KHA2 112233Z 01014KT 12/M14 A3026 RMK A01 T01171138  RH  015%=      5-min Rain = 0
KHA2 112234Z 01013KT 12/M14 A3026 RMK A01 T01161138  RH  015%=      5-min Rain = 0
KHA2 112235Z 36016KT 12/M14 A3026 RMK A01 T01151141  RH  015%=      5-min Rain = 0
KHA2 112236Z 00016KT 12/M14 A3026 RMK A01 T01151141  RH  015%=      5-min Rain = 0
KHA2 112237Z 36015KT 11/M14 A3026 RMK A01 T01141142  RH  015%=      5-min Rain = 0
KHA2 112238Z 35015KT 11/M14 A3026 RMK A01 T01131142  RH  015%=      5-min Rain = 0
KHA2 112239Z 01017KT 12/M14 A3027 RMK A01 T01151141  RH  015%=      5-min Rain = 0
KHA2 112240Z 00017KT 12/M14 A3027 RMK A01 T01171142  RH  015%=      5-min Rain = 0
KHA2 112241Z 01014KT 12/M14 A3027 RMK A01 T01171144  RH  015%=      5-min Rain = 0
KHA2 112242Z 02016KT 12/M14 A3027 RMK A01 T01161143  RH  015%=      5-min Rain = 0
KHA2 112243Z 02014KT 12/M14 A3027 RMK A01 T01151139  RH  015%=      5-min Rain = 0
KHA2 112244Z 02015KT 11/M14 A3027 RMK A01 T01131142  RH  015%=      5-min Rain = 0
KHA2 112245Z 03015KT 11/M14 A3027 RMK A01 T01121143  RH  015%=      5-min Rain = 0
KHA2 112246Z 04014KT 11/M14 A3027 RMK A01 T01121139  RH  016%=      5-min Rain = 0
KHA2 112247Z 03015KT 11/M14 A3027 RMK A01 T01121138  RH  016%=      5-min Rain = 0
KHA2 112248Z 03014KT 11/M14 A3027 RMK A01 T01121136  RH  016%=      5-min Rain = 0
KHA2 112249Z 03013KT 11/M14 A3027 RMK A01 T01121137  RH  016%=      5-min Rain = 0
KHA2 112250Z 02013KT 11/M14 A3027 RMK A01 T01121136  RH  016%=      5-min Rain = 0
KHA2 112251Z 02012KT 11/M14 A3027 RMK A01 T01111137  RH  016%=      5-min Rain = 0
KHA2 112252Z 02014KT 11/M14 A3027 RMK A01 T01101137  RH  016%=      5-min Rain = 0
KHA2 112253Z 02012KT 11/M14 A3027 RMK A01 T01111139  RH  016%=      5-min Rain = 0
KHA2 112254Z 01009KT 11/M14 A3027 RMK A01 T01111139  RH  016%=      5-min Rain = 0
KHA2 112255Z 02012KT 11/M14 A3027 RMK A01 T01101141  RH  016%=      5-min Rain = 0
KHA2 112256Z 02014KT 11/M14 A3027 RMK A01 T01121135  RH  016%=      5-min Rain = 0
KHA2 112257Z 02015KT 11/M13 A3027 RMK A01 T01131131  RH  017%=      5-min Rain = 0
KHA2 112258Z 01015KT 12/M13 A3027 RMK A01 T01151132  RH  016%=      5-min Rain = 0
KHA2 112259Z 00014KT 12/M14 A3027 RMK A01 T01151135  RH  016%=      5-min Rain = 0
KHA2 112300Z 01011KT 11/M14 A3027 RMK A01 T01141137  RH  016%=      5-min Rain = 0
KHA2 112301Z 00013KT 12/M13 A3027 RMK A01 T01161134  RH  016%=      5-min Rain = 0
KHA2 112302Z 00012KT 12/M13 A3027 RMK A01 T01161134  RH  016%=      5-min Rain = 0
KHA2 112303Z 36012KT 12/M14 A3027 RMK A01 T01151135  RH  016%=      5-min Rain = 0
KHA2 112304Z 00013KT 12/M14 A3027 RMK A01 T01151138  RH  016%=      5-min Rain = 0
KHA2 112305Z 00011KT 11/M14 A3027 RMK A01 T01141138  RH  016%=      5-min Rain = 0
KHA2 112306Z 35011KT 11/M14 A3027 RMK A01 T01141137  RH  016%=      5-min Rain = 0
KHA2 112307Z 36011KT 12/M13 A3027 RMK A01 T01151134  RH  016%=      5-min Rain = 0
KHA2 112308Z 01012KT 12/M13 A3027 RMK A01 T01161132  RH  016%=      5-min Rain = 0
KHA2 112309Z 02013KT 12/M13 A3027 RMK A01 T01161129  RH  017%=      5-min Rain = 0
KHA2 112310Z 02010KT 12/M13 A3028 RMK A01 T01151126  RH  017%=      5-min Rain = 0
KHA2 112311Z 03012G17KT 12/M12 A3028 RMK A01 T01181120  RH  018%=      5-min Rain = 0
KHA2 112312Z 01017KT 12/M12 A3028 RMK A01 T01191122  RH  017%=      5-min Rain = 0
KHA2 112313Z 01014KT 12/M13 A3028 RMK A01 T01171127  RH  017%=      5-min Rain = 0
KHA2 112314Z 03014KT 12/M13 A3028 RMK A01 T01151127  RH  017%=      5-min Rain = 0
KHA2 112315Z 03013KT 12/M12 A3028 RMK A01 T01151122  RH  018%=      5-min Rain = 0
KHA2 112316Z 03011KT 12/M12 A3028 RMK A01 T01151123  RH  018%=      5-min Rain = 0
KHA2 112317Z 02010KT 12/M12 A3028 RMK A01 T01151124  RH  017%=      5-min Rain = 0
KHA2 112318Z 02010KT 11/M13 A3028 RMK A01 T01141126  RH  017%=      5-min Rain = 0
KHA2 112319Z 01009KT 12/M13 A3028 RMK A01 T01151125  RH  017%=      5-min Rain = 0
KHA2 112320Z 02010KT 12/M12 A3028 RMK A01 T01171124  RH  017%=      5-min Rain = 0
KHA2 112321Z 01012KT 12/M13 A3027 RMK A01 T01181126  RH  017%=      5-min Rain = 0
KHA2 112322Z 01015KT 12/M12 A3028 RMK A01 T01171124  RH  017%=      5-min Rain = 0
KHA2 112323Z 02016KT 12/M12 A3028 RMK A01 T01161124  RH  017%=      5-min Rain = 0
KHA2 112324Z 02015KT 12/M12 A3028 RMK A01 T01161122  RH  018%=      5-min Rain = 0
KHA2 112325Z 02014KT 12/M12 A3028 RMK A01 T01161120  RH  018%=      5-min Rain = 0
KHA2 112326Z 01015KT 11/M12 A3028 RMK A01 T01141123  RH  018%=      5-min Rain = 0
KHA2 112327Z 02016KT 11/M13 A3028 RMK A01 T01121125  RH  018%=      5-min Rain = 0
KHA2 112328Z 02015KT 11/M12 A3028 RMK A01 T01111121  RH  018%=      5-min Rain = 0
KHA2 112329Z 02013KT 11/M12 A3028 RMK A01 T01111119  RH  019%=      5-min Rain = 0
KHA2 112330Z 02011KT 11/M12 A3028 RMK A01 T01101119  RH  019%=      5-min Rain = 0
KHA2 112331Z 03011KT 11/M12 A3028 RMK A01 T01111119  RH  019%=      5-min Rain = 0
KHA2 112332Z 03014KT 11/M12 A3028 RMK A01 T01121118  RH  019%=      5-min Rain = 0
KHA2 112333Z 03014KT 11/M12 A3028 RMK A01 T01121119  RH  019%=      5-min Rain = 0
KHA2 112334Z 03013KT 11/M12 A3028 RMK A01 T01121119  RH  019%=      5-min Rain = 0
KHA2 112335Z 02011KT 11/M12 A3028 RMK A01 T01111120  RH  019%=      5-min Rain = 0
KHA2 112336Z 02010KT 11/M12 A3028 RMK A01 T01121117  RH  019%=      5-min Rain = 0
KHA2 112337Z 02011KT 12/M12 A3028 RMK A01 T01151115  RH  019%=      5-min Rain = 0
KHA2 112338Z 02011KT 12/M12 A3028 RMK A01 T01171117  RH  018%=      5-min Rain = 0
KHA2 112339Z 02011KT 12/M12 A3028 RMK A01 T01151119  RH  018%=      5-min Rain = 0
KHA2 112340Z 02013KT 11/M12 A3028 RMK A01 T01131121  RH  018%=      5-min Rain = 0
KHA2 112341Z 02011KT 11/M12 A3028 RMK A01 T01111122  RH  018%=      5-min Rain = 0
KHA2 112342Z 01011KT 11/M12 A3028 RMK A01 T01111121  RH  018%=      5-min Rain = 0
KHA2 112343Z 01011KT 11/M12 A3028 RMK A01 T01101122  RH  018%=      5-min Rain = 0
KHA2 112344Z 35012KT 11/M12 A3028 RMK A01 T01101122  RH  018%=      5-min Rain = 0
KHA2 112345Z 35012KT 11/M12 A3028 RMK A01 T01111124  RH  018%=      5-min Rain = 0
KHA2 112346Z 01011G16KT 11/M12 A3028 RMK A01 T01121124  RH  018%=      5-min Rain = 0
KHA2 112347Z 02015KT 11/M12 A3028 RMK A01 T01131122  RH  018%=      5-min Rain = 0
KHA2 112348Z 02014KT 11/M12 A3028 RMK A01 T01091121  RH  019%=      5-min Rain = 0
KHA2 112349Z 02014KT 11/M12 A3029 RMK A01 T01061120  RH  019%=      5-min Rain = 0
KHA2 112350Z 02014KT 10/M12 A3028 RMK A01 T01041120  RH  019%=      5-min Rain = 0
KHA2 112351Z 02014KT 10/M12 A3029 RMK A01 T01031120  RH  020%=      5-min Rain = 0
KHA2 112352Z 01013KT 10/M12 A3029 RMK A01 T01031121  RH  019%=      5-min Rain = 0
KHA2 112353Z 01012KT 10/M12 A3029 RMK A01 T01031124  RH  019%=      5-min Rain = 0
KHA2 112354Z 00011KT 10/M13 A3029 RMK A01 T01021126  RH  019%=      5-min Rain = 0
KHA2 112355Z 00014KT 10/M13 A3029 RMK A01 T01021126  RH  019%=      5-min Rain = 0
KHA2 112356Z 36013KT 10/M13 A3029 RMK A01 T01021125  RH  019%=      5-min Rain = 0
KHA2 112357Z 36013KT 10/M12 A3029 RMK A01 T01031124  RH  019%=      5-min Rain = 0
KHA2 112358Z 00012KT 11/M12 A3029 RMK A01 T01051123  RH  019%=      5-min Rain = 0
KHA2 112359Z 01011KT 11/M12 A3029 RMK A01 T01051123  RH  019%=      5-min Rain = 0
KHA2 120000Z 00012KT 11/M12 A3029 RMK A01 T01051122  RH  019%=      5-min Rain = 0
KHA2 120001Z 01009KT 11/M12 A3029 RMK A01 T01051122  RH  019%=      5-min Rain = 0
KHA2 120002Z 01010KT 10/M12 A3029 RMK A01 T01041121  RH  019%=      5-min Rain = 0
KHA2 120003Z 01010KT 10/M12 A3029 RMK A01 T01041121  RH  019%=      5-min Rain = 0
KHA2 120004Z 02010KT 10/M12 A3029 RMK A01 T01031121  RH  019%=      5-min Rain = 0
KHA2 120005Z 02011KT 10/M12 A3029 RMK A01 T01031117  RH  020%=      5-min Rain = 0
KHA2 120006Z 02011KT 10/M11 A3029 RMK A01 T01031114  RH  020%=      5-min Rain = 0
KHA2 120007Z 01010KT 10/M11 A3029 RMK A01 T01031114  RH  020%=      5-min Rain = 0
KHA2 120008Z 01010KT 10/M12 A3029 RMK A01 T01031116  RH  020%=      5-min Rain = 0
KHA2 120009Z 01008KT 10/M12 A3029 RMK A01 T01031118  RH  020%=      5-min Rain = 0
KHA2 120010Z 01009KT 10/M12 A3029 RMK A01 T01021119  RH  020%=      5-min Rain = 0
KHA2 120011Z 01008KT 10/M12 A3029 RMK A01 T01021120  RH  020%=      5-min Rain = 0
KHA2 120012Z 00009KT 10/M12 A3029 RMK A01 T01021120  RH  020%=      5-min Rain = 0
KHA2 120013Z 00009KT 10/M12 A3029 RMK A01 T01011120  RH  020%=      5-min Rain = 0
KHA2 120014Z 01008KT 10/M12 A3029 RMK A01 T01011120  RH  020%=      5-min Rain = 0
KHA2 120015Z 01009KT 10/M12 A3029 RMK A01 T01011119  RH  020%=      5-min Rain = 0
KHA2 120016Z 01009KT 10/M12 A3029 RMK A01 T01011119  RH  020%=      5-min Rain = 0
KHA2 120017Z 01008KT 10/M12 A3029 RMK A01 T01011118  RH  020%=      5-min Rain = 0
KHA2 120018Z 01009KT 10/M12 A3029 RMK A01 T01011119  RH  020%=      5-min Rain = 0
KHA2 120019Z 01008KT 10/M12 A3029 RMK A01 T01001121  RH  020%=      5-min Rain = 0
KHA2 120020Z 01007KT 10/M12 A3029 RMK A01 T00991120  RH  020%=      5-min Rain = 0
KHA2 120021Z 02007KT 10/M12 A3029 RMK A01 T00991116  RH  021%=      5-min Rain = 0
KHA2 120022Z 02008KT 10/M12 A3029 RMK A01 T00981117  RH  021%=      5-min Rain = 0
KHA2 120023Z 01009KT 10/M12 A3029 RMK A01 T00981117  RH  021%=      5-min Rain = 0
KHA2 120024Z 01008KT 10/M12 A3029 RMK A01 T00981119  RH  020%=      5-min Rain = 0
KHA2 120025Z 02006KT 10/M12 A303 RMK A01 T00981117  RH  021%=      5-min Rain = 0
KHA2 120026Z 02008KT 10/M12 A303 RMK A01 T00961116  RH  021%=      5-min Rain = 0
KHA2 120027Z 03007KT 10/M12 A303 RMK A01 T00961117  RH  021%=      5-min Rain = 0
KHA2 120028Z 03007KT 10/M11 A303 RMK A01 T00961114  RH  021%=      5-min Rain = 0
KHA2 120029Z 03007KT 10/M12 A303 RMK A01 T00951115  RH  022%=      5-min Rain = 0
KHA2 120030Z 03008KT 09/M12 A303 RMK A01 T00941115  RH  022%=      5-min Rain = 0
KHA2 120031Z 03007KT 09/M12 A303 RMK A01 T00941116  RH  021%=      5-min Rain = 0
KHA2 120032Z 03007KT 09/M12 A303 RMK A01 T00931116  RH  022%=      5-min Rain = 0
KHA2 120033Z 03007KT 09/M12 A303 RMK A01 T00921116  RH  022%=      5-min Rain = 0
KHA2 120034Z 03007KT 09/M12 A303 RMK A01 T00901115  RH  022%=      5-min Rain = 0
KHA2 120035Z 03007KT 09/M12 A303 RMK A01 T00891115  RH  022%=      5-min Rain = 0
KHA2 120036Z 03007KT 09/M11 A303 RMK A01 T00881114  RH  023%=      5-min Rain = 0
KHA2 120037Z 03007KT 09/M11 A303 RMK A01 T00871114  RH  023%=      5-min Rain = 0
KHA2 120038Z 03006KT 09/M11 A303 RMK A01 T00861114  RH  023%=      5-min Rain = 0
KHA2 120039Z 03006KT 09/M12 A303 RMK A01 T00851115  RH  023%=      5-min Rain = 0
KHA2 120040Z 03006KT 08/M11 A303 RMK A01 T00841114  RH  023%=      5-min Rain = 0
KHA2 120041Z 03007KT 08/M12 A303 RMK A01 T00831115  RH  023%=      5-min Rain = 0
KHA2 120042Z 03006KT 08/M12 A303 RMK A01 T00821115  RH  023%=      5-min Rain = 0
KHA2 120043Z 03006KT 08/M11 A303 RMK A01 T00811112  RH  024%=      5-min Rain = 0
KHA2 120044Z 03006KT 08/M11 A303 RMK A01 T00801111  RH  025%=      5-min Rain = 0
KHA2 120045Z 02006KT 08/M11 A303 RMK A01 T00791112  RH  025%=      5-min Rain = 0
KHA2 120046Z 02006KT 08/M11 A303 RMK A01 T00781113  RH  024%=      5-min Rain = 0
KHA2 120047Z 02007KT 08/M11 A303 RMK A01 T00771114  RH  024%=      5-min Rain = 0
KHA2 120048Z 02006KT 08/M12 A303 RMK A01 T00771116  RH  024%=      5-min Rain = 0
KHA2 120049Z 02007KT 08/M12 A303 RMK A01 T00771117  RH  024%=      5-min Rain = 0
KHA2 120050Z 02006KT 08/M12 A303 RMK A01 T00761117  RH  024%=      5-min Rain = 0
KHA2 120051Z 02007KT 08/M12 A303 RMK A01 T00761120  RH  023%=      5-min Rain = 0
KHA2 120052Z 01006KT 08/M12 A303 RMK A01 T00761123  RH  023%=      5-min Rain = 0
KHA2 120053Z 01006KT 08/M13 A303 RMK A01 T00751126  RH  023%=      5-min Rain = 0
KHA2 120054Z 01006KT 08/M13 A303 RMK A01 T00751126  RH  022%=      5-min Rain = 0
KHA2 120055Z 01006KT 07/M13 A303 RMK A01 T00741127  RH  022%=      5-min Rain = 0
KHA2 120056Z 01006KT 07/M13 A3031 RMK A01 T00741127  RH  022%=      5-min Rain = 0
KHA2 120057Z 01005KT 07/M13 A3031 RMK A01 T00731128  RH  022%=      5-min Rain = 0
KHA2 120058Z 01006KT 07/M13 A3031 RMK A01 T00721129  RH  022%=      5-min Rain = 0
KHA2 120059Z 01006KT 07/M13 A3031 RMK A01 T00711132  RH  022%=      5-min Rain = 0
KHA2 120100Z 02006KT 07/M13 A3031 RMK A01 T00701133  RH  022%=      5-min Rain = 0
KHA2 120101Z 02007KT 07/M13 A3031 RMK A01 T00691134  RH  022%=      5-min Rain = 0
KHA2 120102Z 02007KT 07/M13 A3031 RMK A01 T00681133  RH  022%=      5-min Rain = 0
KHA2 120103Z 02007KT 07/M13 A3031 RMK A01 T00671133  RH  022%=      5-min Rain = 0
KHA2 120104Z 01007KT 07/M13 A3031 RMK A01 T00661132  RH  023%=      5-min Rain = 0
KHA2 120105Z 01006KT 07/M13 A3031 RMK A01 T00651132  RH  023%=      5-min Rain = 0
KHA2 120106Z 01006KT 06/M13 A3031 RMK A01 T00641132  RH  023%=      5-min Rain = 0
KHA2 120107Z 02006KT 06/M13 A3031 RMK A01 T00641132  RH  023%=      5-min Rain = 0
KHA2 120108Z 02006KT 06/M13 A3031 RMK A01 T00631132  RH  023%=      5-min Rain = 0
KHA2 120109Z 02007KT 06/M13 A3031 RMK A01 T00631130  RH  024%=      5-min Rain = 0
KHA2 120110Z 02007KT 06/M13 A3031 RMK A01 T00631130  RH  024%=      5-min Rain = 0
KHA2 120111Z 02007KT 06/M13 A3031 RMK A01 T00631129  RH  024%=      5-min Rain = 0
KHA2 120112Z 02007KT 06/M13 A3031 RMK A01 T00621126  RH  025%=      5-min Rain = 0
KHA2 120113Z 02007KT 06/M12 A3031 RMK A01 T00611124  RH  025%=      5-min Rain = 0
KHA2 120114Z 02007KT 06/M12 A3031 RMK A01 T00601121  RH  026%=      5-min Rain = 0
KHA2 120115Z 02007KT 06/M12 A3031 RMK A01 T00601119  RH  026%=      5-min Rain = 0
KHA2 120116Z 03008KT 06/M12 A3031 RMK A01 T00601118  RH  026%=      5-min Rain = 0
KHA2 120117Z 03008KT 06/M12 A3031 RMK A01 T00601119  RH  026%=      5-min Rain = 0
KHA2 120118Z 03007KT 06/M12 A3031 RMK A01 T00591119  RH  027%=      5-min Rain = 0
KHA2 120119Z 02007KT 06/M12 A3031 RMK A01 T00571120  RH  027%=      5-min Rain = 0
KHA2 120120Z 03007KT 06/M12 A3031 RMK A01 T00561120  RH  027%=      5-min Rain = 0
KHA2 120121Z 02007KT 06/M12 A3031 RMK A01 T00551120  RH  027%=      5-min Rain = 0
KHA2 120122Z 03007KT 06/M12 A3031 RMK A01 T00551120  RH  027%=      5-min Rain = 0
KHA2 120123Z 03007KT 06/M12 A3031 RMK A01 T00551120  RH  027%=      5-min Rain = 0
KHA2 120124Z 03007KT 06/M12 A3031 RMK A01 T00551120  RH  027%=      5-min Rain = 0
KHA2 120125Z 03007KT 05/M12 A3031 RMK A01 T00541120  RH  027%=      5-min Rain = 0
KHA2 120126Z 03007KT 05/M12 A3031 RMK A01 T00541120  RH  027%=      5-min Rain = 0
KHA2 120127Z 03007KT 05/M12 A3031 RMK A01 T00531121  RH  027%=      5-min Rain = 0
KHA2 120128Z 03008KT 05/M12 A3031 RMK A01 T00521122  RH  027%=      5-min Rain = 0
KHA2 120129Z 03008KT 05/M12 A3031 RMK A01 T00521122  RH  027%=      5-min Rain = 0
KHA2 120130Z 03007KT 05/M12 A3031 RMK A01 T00511121  RH  028%=      5-min Rain = 0
KHA2 120131Z 03007KT 05/M12 A3031 RMK A01 T00501122  RH  028%=      5-min Rain = 0
KHA2 120132Z 03007KT 05/M12 A3031 RMK A01 T00491122  RH  028%=      5-min Rain = 0
KHA2 120133Z 03007KT 05/M12 A3031 RMK A01 T00501122  RH  028%=      5-min Rain = 0
KHA2 120134Z 03007KT 05/M12 A3031 RMK A01 T00491123  RH  028%=      5-min Rain = 0
KHA2 120135Z 03007KT 05/M12 A3031 RMK A01 T00481123  RH  028%=      5-min Rain = 0
KHA2 120136Z 03007KT 05/M12 A3032 RMK A01 T00481123  RH  028%=      5-min Rain = 0
KHA2 120137Z 03007KT 05/M12 A3032 RMK A01 T00481123  RH  028%=      5-min Rain = 0
KHA2 120138Z 02007KT 05/M12 A3032 RMK A01 T00481123  RH  028%=      5-min Rain = 0
KHA2 120139Z 02007KT 05/M12 A3032 RMK A01 T00481123  RH  028%=      5-min Rain = 0
KHA2 120140Z 03007KT 05/M12 A3032 RMK A01 T00481124  RH  028%=      5-min Rain = 0
KHA2 120141Z 03007KT 05/M13 A3032 RMK A01 T00481125  RH  027%=      5-min Rain = 0
KHA2 120142Z 03007KT 05/M12 A3032 RMK A01 T00481124  RH  027%=      5-min Rain = 0
KHA2 120143Z 03007KT 05/M12 A3032 RMK A01 T00491124  RH  027%=      5-min Rain = 0
KHA2 120144Z 02007KT 05/M13 A3032 RMK A01 T00491125  RH  027%=      5-min Rain = 0
KHA2 120145Z 02006KT 05/M13 A3032 RMK A01 T00481128  RH  027%=      5-min Rain = 0
KHA2 120146Z 02006KT 05/M13 A3032 RMK A01 T00471132  RH  026%=      5-min Rain = 0
KHA2 120147Z 02006KT 05/M14 A3032 RMK A01 T00471135  RH  025%=      5-min Rain = 0
KHA2 120148Z 02006KT 05/M14 A3032 RMK A01 T00461136  RH  025%=      5-min Rain = 0
KHA2 120149Z 02006KT 05/M14 A3032 RMK A01 T00461137  RH  025%=      5-min Rain = 0
KHA2 120150Z 02006KT 05/M14 A3032 RMK A01 T00471138  RH  025%=      5-min Rain = 0
KHA2 120151Z 02006KT 05/M14 A3032 RMK A01 T00471138  RH  025%=      5-min Rain = 0
KHA2 120152Z 02006KT 05/M14 A3032 RMK A01 T00461139  RH  025%=      5-min Rain = 0
KHA2 120153Z 02006KT 05/M14 A3032 RMK A01 T00471139  RH  025%=      5-min Rain = 0
KHA2 120154Z 02006KT 05/M14 A3032 RMK A01 T00471139  RH  025%=      5-min Rain = 0
KHA2 120155Z 03006KT 05/M14 A3032 RMK A01 T00471138  RH  025%=      5-min Rain = 0
KHA2 120156Z 03006KT 05/M14 A3033 RMK A01 T00481138  RH  025%=      5-min Rain = 0
KHA2 120157Z 03006KT 05/M14 A3033 RMK A01 T00481136  RH  025%=      5-min Rain = 0
KHA2 120158Z 03006KT 05/M13 A3033 RMK A01 T00481134  RH  025%=      5-min Rain = 0
KHA2 120159Z 03006KT 05/M13 A3033 RMK A01 T00481132  RH  026%=      5-min Rain = 0
KHA2 120200Z 03006KT 05/M13 A3033 RMK A01 T00481131  RH  026%=      5-min Rain = 0
KHA2 120201Z 03006KT 05/M13 A3033 RMK A01 T00481133  RH  026%=      5-min Rain = 0
KHA2 120202Z 03006KT 05/M13 A3033 RMK A01 T00471134  RH  025%=      5-min Rain = 0
KHA2 120203Z 03006KT 05/M14 A3033 RMK A01 T00471135  RH  025%=      5-min Rain = 0
KHA2 120204Z 03005KT 05/M14 A3033 RMK A01 T00471138  RH  025%=      5-min Rain = 0
KHA2 120205Z 03005KT 05/M14 A3033 RMK A01 T00471141  RH  024%=      5-min Rain = 0
KHA2 120206Z 02005KT 05/M14 A3033 RMK A01 T00471142  RH  024%=      5-min Rain = 0
KHA2 120207Z 02005KT 05/M14 A3033 RMK A01 T00471143  RH  024%=      5-min Rain = 0
KHA2 120208Z 03005KT 05/M14 A3033 RMK A01 T00471144  RH  024%=      5-min Rain = 0
KHA2 120209Z 02004KT 05/M15 A3033 RMK A01 T00461146  RH  023%=      5-min Rain = 0
KHA2 120210Z 01004KT 05/M15 A3033 RMK A01 T00451148  RH  023%=      5-min Rain = 0
KHA2 120211Z 01004KT 04/M15 A3033 RMK A01 T00431151  RH  023%=      5-min Rain = 0
KHA2 120212Z 00004KT 04/M15 A3033 RMK A01 T00421154  RH  023%=      5-min Rain = 0
KHA2 120213Z 36004KT 04/M16 A3034 RMK A01 T00411156  RH  022%=      5-min Rain = 0
KHA2 120214Z 00004KT 04/M16 A3034 RMK A01 T00401157  RH  022%=      5-min Rain = 0
KHA2 120215Z 36003KT 04/M16 A3034 RMK A01 T00401156  RH  022%=      5-min Rain = 0
KHA2 120216Z 00004KT 04/M16 A3034 RMK A01 T00411155  RH  022%=      5-min Rain = 0
KHA2 120217Z 01004KT 04/M15 A3034 RMK A01 T00421154  RH  022%=      5-min Rain = 0
KHA2 120218Z 01004KT 04/M15 A3034 RMK A01 T00441153  RH  022%=      5-min Rain = 0
KHA2 120219Z 01004KT 05/M15 A3034 RMK A01 T00451153  RH  022%=      5-min Rain = 0
KHA2 120220Z 01004KT 05/M15 A3034 RMK A01 T00461153  RH  022%=      5-min Rain = 0
KHA2 120221Z 00004KT 05/M15 A3034 RMK A01 T00461154  RH  022%=      5-min Rain = 0
KHA2 120222Z 01004KT 05/M16 A3034 RMK A01 T00461155  RH  022%=      5-min Rain = 0
KHA2 120223Z 36004KT 05/M16 A3034 RMK A01 T00461156  RH  022%=      5-min Rain = 0
KHA2 120224Z 36004KT 05/M16 A3034 RMK A01 T00471157  RH  021%=      5-min Rain = 0
KHA2 120225Z 36004KT 05/M16 A3034 RMK A01 T00451158  RH  021%=      5-min Rain = 0
KHA2 120226Z 36004KT 04/M16 A3034 RMK A01 T00441160  RH  021%=      5-min Rain = 0
KHA2 120227Z 36004KT 04/M16 A3034 RMK A01 T00421160  RH  021%=      5-min Rain = 0
KHA2 120228Z 36004KT 04/M16 A3034 RMK A01 T00411159  RH  022%=      5-min Rain = 0
KHA2 120229Z 36004KT 04/M16 A3034 RMK A01 T00411158  RH  022%=      5-min Rain = 0
KHA2 120230Z 36004KT 04/M16 A3034 RMK A01 T00411158  RH  022%=      5-min Rain = 0
KHA2 120231Z 35004KT 04/M16 A3034 RMK A01 T00411158  RH  022%=      5-min Rain = 0
KHA2 120232Z 35004KT 04/M16 A3034 RMK A01 T00411158  RH  022%=      5-min Rain = 0
KHA2 120233Z 36004KT 04/M16 A3034 RMK A01 T00421157  RH  022%=      5-min Rain = 0
KHA2 120234Z 35004KT 04/M16 A3034 RMK A01 T00441157  RH  022%=      5-min Rain = 0
KHA2 120235Z 36004KT 04/M16 A3034 RMK A01 T00431158  RH  022%=      5-min Rain = 0
KHA2 120236Z 00004KT 04/M16 A3034 RMK A01 T00431157  RH  022%=      5-min Rain = 0
KHA2 120237Z 00004KT 04/M16 A3034 RMK A01 T00421158  RH  022%=      5-min Rain = 0
KHA2 120238Z 00004KT 04/M16 A3034 RMK A01 T00401157  RH  022%=      5-min Rain = 0
KHA2 120239Z 01004KT 04/M16 A3035 RMK A01 T00381158  RH  022%=      5-min Rain = 0
KHA2 120240Z 01004KT 04/M16 A3035 RMK A01 T00371158  RH  023%=      5-min Rain = 0
KHA2 120241Z 01004KT 04/M16 A3035 RMK A01 T00371158  RH  022%=      5-min Rain = 0
KHA2 120242Z 01004KT 04/M16 A3035 RMK A01 T00391158  RH  022%=      5-min Rain = 0
KHA2 120243Z 01004KT 04/M16 A3035 RMK A01 T00401158  RH  022%=      5-min Rain = 0
KHA2 120244Z 02004KT 04/M16 A3035 RMK A01 T00411158  RH  022%=      5-min Rain = 0
KHA2 120245Z 01004KT 04/M16 A3035 RMK A01 T00411158  RH  022%=      5-min Rain = 0
KHA2 120246Z 01004KT 04/M16 A3035 RMK A01 T00411157  RH  022%=      5-min Rain = 0
KHA2 120247Z 02004KT 04/M16 A3035 RMK A01 T00411158  RH  022%=      5-min Rain = 0
KHA2 120248Z 02004KT 04/M16 A3034 RMK A01 T00411158  RH  022%=      5-min Rain = 0
KHA2 120249Z 01004KT 04/M16 A3034 RMK A01 T00401158  RH  022%=      5-min Rain = 0
KHA2 120250Z 01004KT 04/M16 A3034 RMK A01 T00401158  RH  022%=      5-min Rain = 0
KHA2 120251Z 01005KT 04/M16 A3034 RMK A01 T00391159  RH  022%=      5-min Rain = 0
KHA2 120252Z 02005KT 04/M16 A3034 RMK A01 T00371160  RH  022%=      5-min Rain = 0
KHA2 120253Z 02005KT 04/M16 A3034 RMK A01 T00371159  RH  022%=      5-min Rain = 0
KHA2 120254Z 02005KT 04/M16 A3034 RMK A01 T00361160  RH  022%=      5-min Rain = 0
KHA2 120255Z 01005KT 04/M16 A3035 RMK A01 T00361160  RH  022%=      5-min Rain = 0
KHA2 120256Z 02005KT 04/M16 A3035 RMK A01 T00351160  RH  022%=      5-min Rain = 0
KHA2 120257Z 02005KT 03/M16 A3035 RMK A01 T00341160  RH  023%=      5-min Rain = 0
KHA2 120258Z 02005KT 03/M16 A3034 RMK A01 T00331160  RH  023%=      5-min Rain = 0
KHA2 120259Z 02005KT 03/M16 A3034 RMK A01 T00321160  RH  023%=      5-min Rain = 0
KHA2 120300Z 02006KT 03/M16 A3034 RMK A01 T00321161  RH  023%=      5-min Rain = 0
KHA2 120301Z 03005KT 03/M16 A3034 RMK A01 T00321161  RH  023%=      5-min Rain = 0
KHA2 120302Z 02005KT 03/M16 A3034 RMK A01 T00321161  RH  023%=      5-min Rain = 0
KHA2 120303Z 03005KT 03/M16 A3034 RMK A01 T00311162  RH  023%=      5-min Rain = 0
KHA2 120304Z 03005KT 03/M16 A3034 RMK A01 T00311162  RH  023%=      5-min Rain = 0
KHA2 120305Z 03005KT 03/M16 A3034 RMK A01 T00311162  RH  023%=      5-min Rain = 0
KHA2 120306Z 03005KT 03/M16 A3035 RMK A01 T00311161  RH  023%=      5-min Rain = 0
KHA2 120307Z 03006KT 03/M16 A3035 RMK A01 T00311160  RH  023%=      5-min Rain = 0
KHA2 120308Z 03006KT 03/M16 A3035 RMK A01 T00311160  RH  023%=      5-min Rain = 0
KHA2 120309Z 03006KT 03/M16 A3035 RMK A01 T00311159  RH  023%=      5-min Rain = 0
KHA2 120310Z 03006KT 03/M16 A3035 RMK A01 T00311158  RH  024%=      5-min Rain = 0
KHA2 120311Z 03006KT 03/M16 A3035 RMK A01 T00301156  RH  024%=      5-min Rain = 0
KHA2 120312Z 02006KT 03/M16 A3035 RMK A01 T00301155  RH  024%=      5-min Rain = 0
KHA2 120313Z 03006KT 03/M15 A3035 RMK A01 T00311154  RH  024%=      5-min Rain = 0
KHA2 120314Z 02006KT 03/M15 A3035 RMK A01 T00311152  RH  025%=      5-min Rain = 0
KHA2 120315Z 03006KT 03/M15 A3035 RMK A01 T00311150  RH  025%=      5-min Rain = 0
KHA2 120316Z 03006KT 03/M15 A3035 RMK A01 T00301150  RH  025%=      5-min Rain = 0
KHA2 120317Z 03006KT 03/M15 A3035 RMK A01 T00301150  RH  025%=      5-min Rain = 0
KHA2 120318Z 03006KT 03/M15 A3035 RMK A01 T00301150  RH  025%=      5-min Rain = 0
KHA2 120319Z 03006KT 03/M15 A3035 RMK A01 T00301149  RH  026%=      5-min Rain = 0
KHA2 120320Z 03007KT 03/M14 A3035 RMK A01 T00301144  RH  027%=      5-min Rain = 0
KHA2 120321Z 04007KT 03/M14 A3035 RMK A01 T00291139  RH  028%=      5-min Rain = 0
KHA2 120322Z 04007KT 03/M14 A3035 RMK A01 T00291137  RH  028%=      5-min Rain = 0
KHA2 120323Z 04006KT 03/M14 A3035 RMK A01 T00301135  RH  029%=      5-min Rain = 0
KHA2 120324Z 03006KT 03/M13 A3035 RMK A01 T00301134  RH  029%=      5-min Rain = 0
KHA2 120325Z 04006KT 03/M14 A3035 RMK A01 T00301135  RH  029%=      5-min Rain = 0
KHA2 120326Z 03006KT 03/M14 A3035 RMK A01 T00301137  RH  028%=      5-min Rain = 0
KHA2 120327Z 03006KT 03/M14 A3035 RMK A01 T00301136  RH  028%=      5-min Rain = 0
KHA2 120328Z 03006KT 03/M13 A3035 RMK A01 T00301134  RH  029%=      5-min Rain = 0
KHA2 120329Z 03006KT 03/M14 A3035 RMK A01 T00301137  RH  028%=      5-min Rain = 0
KHA2 120330Z 03006KT 03/M14 A3035 RMK A01 T00301139  RH  028%=      5-min Rain = 0
KHA2 120331Z 03006KT 03/M14 A3035 RMK A01 T00291137  RH  028%=      5-min Rain = 0
KHA2 120332Z 03006KT 03/M14 A3035 RMK A01 T00291136  RH  028%=      5-min Rain = 0
KHA2 120333Z 03005KT 03/M14 A3035 RMK A01 T00291138  RH  028%=      5-min Rain = 0
KHA2 120334Z 04005KT 03/M14 A3035 RMK A01 T00291140  RH  028%=      5-min Rain = 0
KHA2 120335Z 04005KT 03/M14 A3035 RMK A01 T00291140  RH  028%=      5-min Rain = 0
KHA2 120336Z 04005KT 03/M14 A3035 RMK A01 T00291139  RH  028%=      5-min Rain = 0
KHA2 120337Z 04005KT 03/M14 A3035 RMK A01 T00291139  RH  028%=      5-min Rain = 0
KHA2 120338Z 04005KT 03/M14 A3035 RMK A01 T00291139  RH  028%=      5-min Rain = 0
KHA2 120339Z 03005KT 03/M14 A3035 RMK A01 T00291141  RH  027%=      5-min Rain = 0
KHA2 120340Z 03005KT 03/M14 A3035 RMK A01 T00291143  RH  027%=      5-min Rain = 0
KHA2 120341Z 03005KT 03/M14 A3035 RMK A01 T00291143  RH  027%=      5-min Rain = 0
KHA2 120342Z 03005KT 03/M14 A3035 RMK A01 T00301143  RH  027%=      5-min Rain = 0
KHA2 120343Z 03005KT 03/M14 A3035 RMK A01 T00301144  RH  027%=      5-min Rain = 0
KHA2 120344Z 03005KT 03/M14 A3035 RMK A01 T00301143  RH  027%=      5-min Rain = 0
KHA2 120345Z 03005KT 03/M14 A3036 RMK A01 T00301142  RH  027%=      5-min Rain = 0
KHA2 120346Z 03005KT 03/M14 A3036 RMK A01 T00301142  RH  027%=      5-min Rain = 0
KHA2 120347Z 03005KT 03/M14 A3036 RMK A01 T00301141  RH  027%=      5-min Rain = 0
KHA2 120348Z 03005KT 03/M14 A3036 RMK A01 T00301140  RH  027%=      5-min Rain = 0
KHA2 120349Z 03005KT 03/M14 A3036 RMK A01 T00311139  RH  027%=      5-min Rain = 0
KHA2 120350Z 04005KT 03/M14 A3036 RMK A01 T00311138  RH  028%=      5-min Rain = 0
KHA2 120351Z 04006KT 03/M14 A3036 RMK A01 T00321136  RH  028%=      5-min Rain = 0
KHA2 120352Z 04006KT 03/M13 A3036 RMK A01 T00341134  RH  028%=      5-min Rain = 0
KHA2 120353Z 04006KT 04/M13 A3036 RMK A01 T00351132  RH  028%=      5-min Rain = 0
KHA2 120354Z 04006KT 04/M13 A3036 RMK A01 T00351134  RH  028%=      5-min Rain = 0
KHA2 120355Z 04006KT 04/M14 A3036 RMK A01 T00351136  RH  027%=      5-min Rain = 0
KHA2 120356Z 04006KT 03/M14 A3036 RMK A01 T00341137  RH  027%=      5-min Rain = 0
KHA2 120357Z 04005KT 03/M14 A3036 RMK A01 T00331138  RH  027%=      5-min Rain = 0
KHA2 120358Z 04006KT 03/M14 A3036 RMK A01 T00321140  RH  027%=      5-min Rain = 0
KHA2 120359Z 04006KT 03/M14 A3036 RMK A01 T00301139  RH  028%=      5-min Rain = 0
KHA2 120400Z 05006KT 03/M14 A3036 RMK A01 T00311135  RH  028%=      5-min Rain = 0
KHA2 120401Z 05006KT 03/M13 A3036 RMK A01 T00311129  RH  030%=      5-min Rain = 0
KHA2 120402Z 05006KT 03/M12 A3036 RMK A01 T00321124  RH  031%=      5-min Rain = 0
KHA2 120403Z 05006KT 03/M12 A3036 RMK A01 T00321122  RH  031%=      5-min Rain = 0
KHA2 120404Z 05006KT 03/M12 A3036 RMK A01 T00311122  RH  031%=      5-min Rain = 0
KHA2 120405Z 05006KT 03/M12 A3036 RMK A01 T00311124  RH  031%=      5-min Rain = 0
KHA2 120406Z 05006KT 03/M13 A3036 RMK A01 T00301126  RH  031%=      5-min Rain = 0
KHA2 120407Z 05006KT 03/M13 A3036 RMK A01 T00301127  RH  031%=      5-min Rain = 0
KHA2 120408Z 04005KT 03/M13 A3036 RMK A01 T00291126  RH  031%=      5-min Rain = 0
KHA2 120409Z 05006KT 03/M13 A3036 RMK A01 T00291127  RH  031%=      5-min Rain = 0
KHA2 120410Z 05005KT 03/M13 A3036 RMK A01 T00291128  RH  030%=      5-min Rain = 0
KHA2 120411Z 05005KT 03/M13 A3036 RMK A01 T00291127  RH  031%=      5-min Rain = 0
KHA2 120412Z 05005KT 03/M13 A3036 RMK A01 T00281125  RH  031%=      5-min Rain = 0
KHA2 120413Z 05005KT 03/M12 A3036 RMK A01 T00271124  RH  032%=      5-min Rain = 0
KHA2 120414Z 05005KT 03/M12 A3036 RMK A01 T00271122  RH  032%=      5-min Rain = 0
KHA2 120415Z 05005KT 03/M12 A3036 RMK A01 T00271121  RH  033%=      5-min Rain = 0
KHA2 120416Z 05005KT 03/M12 A3036 RMK A01 T00271120  RH  033%=      5-min Rain = 0
KHA2 120417Z 05005KT 03/M12 A3036 RMK A01 T00271119  RH  033%=      5-min Rain = 0
KHA2 120418Z 05005KT 03/M12 A3036 RMK A01 T00281118  RH  033%=      5-min Rain = 0
KHA2 120419Z 05005KT 03/M12 A3036 RMK A01 T00281120  RH  033%=      5-min Rain = 0
KHA2 120420Z 05005KT 03/M12 A3036 RMK A01 T00281121  RH  032%=      5-min Rain = 0
KHA2 120421Z 05005KT 03/M13 A3036 RMK A01 T00281126  RH  031%=      5-min Rain = 0
KHA2 120422Z 05005KT 03/M13 A3036 RMK A01 T00281129  RH  030%=      5-min Rain = 0
KHA2 120423Z 05005KT 03/M13 A3036 RMK A01 T00271129  RH  031%=      5-min Rain = 0
KHA2 120424Z 05005KT 03/M13 A3036 RMK A01 T00271125  RH  032%=      5-min Rain = 0
KHA2 120425Z 05005KT 03/M12 A3036 RMK A01 T00261121  RH  033%=      5-min Rain = 0
KHA2 120426Z 06004KT 03/M12 A3036 RMK A01 T00261119  RH  033%=      5-min Rain = 0
KHA2 120427Z 06005KT 03/M12 A3036 RMK A01 T00261116  RH  034%=      5-min Rain = 0
KHA2 120428Z 05004KT 03/M11 A3036 RMK A01 T00261114  RH  035%=      5-min Rain = 0
KHA2 120429Z 05004KT 03/M11 A3036 RMK A01 T00271112  RH  035%=      5-min Rain = 0
KHA2 120430Z 05005KT 03/M11 A3036 RMK A01 T00271114  RH  035%=      5-min Rain = 0
KHA2 120431Z 05005KT 03/M12 A3036 RMK A01 T00261117  RH  034%=      5-min Rain = 0
KHA2 120432Z 05005KT 03/M12 A3036 RMK A01 T00271118  RH  034%=      5-min Rain = 0
KHA2 120433Z 05005KT 03/M12 A3036 RMK A01 T00271121  RH  033%=      5-min Rain = 0
KHA2 120434Z 05005KT 03/M12 A3036 RMK A01 T00261123  RH  032%=      5-min Rain = 0
KHA2 120435Z 05005KT 03/M12 A3036 RMK A01 T00261122  RH  033%=      5-min Rain = 0
KHA2 120436Z 05005KT 03/M12 A3036 RMK A01 T00261119  RH  033%=      5-min Rain = 0
KHA2 120437Z 04005KT 03/M12 A3036 RMK A01 T00261116  RH  034%=      5-min Rain = 0
KHA2 120438Z 05005KT 03/M11 A3036 RMK A01 T00261113  RH  035%=      5-min Rain = 0
KHA2 120439Z 05005KT 03/M11 A3036 RMK A01 T00261111  RH  036%=      5-min Rain = 0
KHA2 120440Z 05005KT 03/M11 A3036 RMK A01 T00261112  RH  035%=      5-min Rain = 0
KHA2 120441Z 05005KT 03/M11 A3036 RMK A01 T00271112  RH  035%=      5-min Rain = 0
KHA2 120442Z 05005KT 03/M11 A3036 RMK A01 T00281111  RH  035%=      5-min Rain = 0
KHA2 120443Z 05005KT 03/M11 A3036 RMK A01 T00281111  RH  035%=      5-min Rain = 0
KHA2 120444Z 05005KT 03/M11 A3036 RMK A01 T00291110  RH  035%=      5-min Rain = 0
KHA2 120445Z 05005KT 03/M11 A3036 RMK A01 T00291110  RH  035%=      5-min Rain = 0
KHA2 120446Z 05005KT 03/M11 A3036 RMK A01 T00281112  RH  035%=      5-min Rain = 0
KHA2 120447Z 05005KT 03/M11 A3036 RMK A01 T00281112  RH  035%=      5-min Rain = 0
KHA2 120448Z 05005KT 03/M11 A3036 RMK A01 T00291111  RH  035%=      5-min Rain = 0
KHA2 120449Z 05005KT 03/M11 A3036 RMK A01 T00291110  RH  035%=      5-min Rain = 0
KHA2 120450Z 05005KT 03/M11 A3036 RMK A01 T00291110  RH  035%=      5-min Rain = 0
KHA2 120451Z 05005KT 03/M11 A3036 RMK A01 T00291110  RH  035%=      5-min Rain = 0
KHA2 120452Z 05005KT 03/M11 A3036 RMK A01 T00301107  RH  036%=      5-min Rain = 0
KHA2 120453Z 05005KT 03/M11 A3036 RMK A01 T00301108  RH  036%=      5-min Rain = 0
KHA2 120454Z 05005KT 03/M11 A3036 RMK A01 T00301109  RH  035%=      5-min Rain = 0
KHA2 120455Z 05005KT 03/M11 A3036 RMK A01 T00301108  RH  035%=      5-min Rain = 0
KHA2 120456Z 05005KT 03/M11 A3036 RMK A01 T00291109  RH  035%=      5-min Rain = 0
KHA2 120457Z 05005KT 03/M11 A3036 RMK A01 T00281108  RH  036%=      5-min Rain = 0
KHA2 120458Z 04005KT 03/M11 A3036 RMK A01 T00271111  RH  035%=      5-min Rain = 0
KHA2 120459Z 05005KT 03/M12 A3036 RMK A01 T00261116  RH  034%=      5-min Rain = 0

Page generated in 0.0318 seconds.